<?xml version="1.0" encoding="UTF-8" standalone="no" ?>
<gpx xmlns="http://www.topografix.com/GPX/1/1" xmlns:xsi="http://www.w3.org/2001/XMLSchema-instance" xsi:schemaLocation="http://www.topografix.com/GPX/1/1 http://www.topografix.com/GPX/1/1/gpx.xsd" version="1.1" creator="VisuGPX - https://www.visugpx.com">
  <metadata>
    <name>Le petit Bruis</name>
    <desc><![CDATA[rando du dimanche 6 mai 2012]]></desc>
  </metadata>
  <trk>
    <name><![CDATA[le petit Bruis]]></name>
    <trkseg>
      <trkpt lat="43.73008" lon="6.57085">
        <ele>1074</ele>
        <time>2012-05-06T09:33:23Z</time>
      </trkpt>
      <trkpt lat="43.73011" lon="6.57087">
        <ele>1071</ele>
        <time>2012-05-06T09:33:56Z</time>
      </trkpt>
      <trkpt lat="43.73011" lon="6.57087">
        <ele>1068</ele>
        <time>2012-05-06T09:34:44Z</time>
      </trkpt>
      <trkpt lat="43.73009" lon="6.57086">
        <ele>1068</ele>
        <time>2012-05-06T09:37:52Z</time>
      </trkpt>
      <trkpt lat="43.73007" lon="6.57089">
        <ele>1068</ele>
        <time>2012-05-06T09:38:17Z</time>
      </trkpt>
      <trkpt lat="43.73006" lon="6.57086">
        <ele>1067</ele>
        <time>2012-05-06T09:40:12Z</time>
      </trkpt>
      <trkpt lat="43.7301" lon="6.57078">
        <ele>1068</ele>
        <time>2012-05-06T09:40:25Z</time>
      </trkpt>
      <trkpt lat="43.73014" lon="6.57068">
        <ele>1068</ele>
        <time>2012-05-06T09:40:33Z</time>
      </trkpt>
      <trkpt lat="43.73021" lon="6.57046">
        <ele>1069</ele>
        <time>2012-05-06T09:40:50Z</time>
      </trkpt>
      <trkpt lat="43.73029" lon="6.57026">
        <ele>1069</ele>
        <time>2012-05-06T09:41:05Z</time>
      </trkpt>
      <trkpt lat="43.73039" lon="6.57008">
        <ele>1069</ele>
        <time>2012-05-06T09:41:20Z</time>
      </trkpt>
      <trkpt lat="43.7305" lon="6.56988">
        <ele>1070</ele>
        <time>2012-05-06T09:41:38Z</time>
      </trkpt>
      <trkpt lat="43.73061" lon="6.5697">
        <ele>1070</ele>
        <time>2012-05-06T09:41:53Z</time>
      </trkpt>
      <trkpt lat="43.73071" lon="6.5695">
        <ele>1070</ele>
        <time>2012-05-06T09:42:08Z</time>
      </trkpt>
      <trkpt lat="43.7308" lon="6.56934">
        <ele>1070</ele>
        <time>2012-05-06T09:42:21Z</time>
      </trkpt>
      <trkpt lat="43.73092" lon="6.56915">
        <ele>1070</ele>
        <time>2012-05-06T09:42:38Z</time>
      </trkpt>
      <trkpt lat="43.73104" lon="6.56893">
        <ele>1070</ele>
        <time>2012-05-06T09:42:54Z</time>
      </trkpt>
      <trkpt lat="43.73111" lon="6.56886">
        <ele>1070</ele>
        <time>2012-05-06T09:43:08Z</time>
      </trkpt>
      <trkpt lat="43.73117" lon="6.56873">
        <ele>1070</ele>
        <time>2012-05-06T09:43:35Z</time>
      </trkpt>
      <trkpt lat="43.73129" lon="6.56856">
        <ele>1071</ele>
        <time>2012-05-06T09:43:49Z</time>
      </trkpt>
      <trkpt lat="43.73143" lon="6.56839">
        <ele>1072</ele>
        <time>2012-05-06T09:44:06Z</time>
      </trkpt>
      <trkpt lat="43.73152" lon="6.56841">
        <ele>1075</ele>
        <time>2012-05-06T09:44:20Z</time>
      </trkpt>
      <trkpt lat="43.73159" lon="6.56844">
        <ele>1078</ele>
        <time>2012-05-06T09:44:37Z</time>
      </trkpt>
      <trkpt lat="43.73168" lon="6.56845">
        <ele>1080</ele>
        <time>2012-05-06T09:44:49Z</time>
      </trkpt>
      <trkpt lat="43.73182" lon="6.56849">
        <ele>1080</ele>
        <time>2012-05-06T09:45:03Z</time>
      </trkpt>
      <trkpt lat="43.73188" lon="6.56847">
        <ele>1080</ele>
        <time>2012-05-06T09:45:10Z</time>
      </trkpt>
      <trkpt lat="43.73193" lon="6.56845">
        <ele>1080</ele>
        <time>2012-05-06T09:45:16Z</time>
      </trkpt>
      <trkpt lat="43.73203" lon="6.56837">
        <ele>1080</ele>
        <time>2012-05-06T09:45:30Z</time>
      </trkpt>
      <trkpt lat="43.73215" lon="6.56827">
        <ele>1082</ele>
        <time>2012-05-06T09:45:45Z</time>
      </trkpt>
      <trkpt lat="43.73225" lon="6.56823">
        <ele>1083</ele>
        <time>2012-05-06T09:45:57Z</time>
      </trkpt>
      <trkpt lat="43.73232" lon="6.56817">
        <ele>1084</ele>
        <time>2012-05-06T09:46:08Z</time>
      </trkpt>
      <trkpt lat="43.73245" lon="6.5681">
        <ele>1086</ele>
        <time>2012-05-06T09:46:23Z</time>
      </trkpt>
      <trkpt lat="43.73256" lon="6.56802">
        <ele>1087</ele>
        <time>2012-05-06T09:46:35Z</time>
      </trkpt>
      <trkpt lat="43.73268" lon="6.56794">
        <ele>1088</ele>
        <time>2012-05-06T09:46:50Z</time>
      </trkpt>
      <trkpt lat="43.73277" lon="6.56787">
        <ele>1090</ele>
        <time>2012-05-06T09:47:02Z</time>
      </trkpt>
      <trkpt lat="43.73285" lon="6.56773">
        <ele>1091</ele>
        <time>2012-05-06T09:47:15Z</time>
      </trkpt>
      <trkpt lat="43.73294" lon="6.56764">
        <ele>1092</ele>
        <time>2012-05-06T09:47:28Z</time>
      </trkpt>
      <trkpt lat="43.73297" lon="6.56759">
        <ele>1092</ele>
        <time>2012-05-06T09:47:32Z</time>
      </trkpt>
      <trkpt lat="43.73298" lon="6.56752">
        <ele>1093</ele>
        <time>2012-05-06T09:47:36Z</time>
      </trkpt>
      <trkpt lat="43.73307" lon="6.56737">
        <ele>1094</ele>
        <time>2012-05-06T09:47:51Z</time>
      </trkpt>
      <trkpt lat="43.73308" lon="6.56735">
        <ele>1094</ele>
        <time>2012-05-06T09:47:52Z</time>
      </trkpt>
      <trkpt lat="43.7331" lon="6.56733">
        <ele>1094</ele>
        <time>2012-05-06T09:47:55Z</time>
      </trkpt>
      <trkpt lat="43.73322" lon="6.56719">
        <ele>1096</ele>
        <time>2012-05-06T09:48:10Z</time>
      </trkpt>
      <trkpt lat="43.73324" lon="6.56715">
        <ele>1096</ele>
        <time>2012-05-06T09:48:14Z</time>
      </trkpt>
      <trkpt lat="43.73333" lon="6.56702">
        <ele>1097</ele>
        <time>2012-05-06T09:48:27Z</time>
      </trkpt>
      <trkpt lat="43.73336" lon="6.56698">
        <ele>1097</ele>
        <time>2012-05-06T09:48:30Z</time>
      </trkpt>
      <trkpt lat="43.73338" lon="6.56694">
        <ele>1097</ele>
        <time>2012-05-06T09:48:34Z</time>
      </trkpt>
      <trkpt lat="43.73346" lon="6.56685">
        <ele>1098</ele>
        <time>2012-05-06T09:48:44Z</time>
      </trkpt>
      <trkpt lat="43.73354" lon="6.56662">
        <ele>1100</ele>
        <time>2012-05-06T09:49:02Z</time>
      </trkpt>
      <trkpt lat="43.7336" lon="6.56644">
        <ele>1101</ele>
        <time>2012-05-06T09:49:20Z</time>
      </trkpt>
      <trkpt lat="43.73372" lon="6.56623">
        <ele>1104</ele>
        <time>2012-05-06T09:49:43Z</time>
      </trkpt>
      <trkpt lat="43.73382" lon="6.56612">
        <ele>1107</ele>
        <time>2012-05-06T09:50:01Z</time>
      </trkpt>
      <trkpt lat="43.73392" lon="6.56598">
        <ele>1109</ele>
        <time>2012-05-06T09:50:20Z</time>
      </trkpt>
      <trkpt lat="43.73396" lon="6.56579">
        <ele>1113</ele>
        <time>2012-05-06T09:50:40Z</time>
      </trkpt>
      <trkpt lat="43.73406" lon="6.56571">
        <ele>1114</ele>
        <time>2012-05-06T09:50:55Z</time>
      </trkpt>
      <trkpt lat="43.73413" lon="6.56563">
        <ele>1116</ele>
        <time>2012-05-06T09:51:10Z</time>
      </trkpt>
      <trkpt lat="43.73423" lon="6.56562">
        <ele>1119</ele>
        <time>2012-05-06T09:51:27Z</time>
      </trkpt>
      <trkpt lat="43.73427" lon="6.56567">
        <ele>1122</ele>
        <time>2012-05-06T09:51:42Z</time>
      </trkpt>
      <trkpt lat="43.73435" lon="6.56566">
        <ele>1124</ele>
        <time>2012-05-06T09:52:00Z</time>
      </trkpt>
      <trkpt lat="43.73442" lon="6.56562">
        <ele>1127</ele>
        <time>2012-05-06T09:52:18Z</time>
      </trkpt>
      <trkpt lat="43.73454" lon="6.56558">
        <ele>1130</ele>
        <time>2012-05-06T09:52:40Z</time>
      </trkpt>
      <trkpt lat="43.73467" lon="6.56558">
        <ele>1133</ele>
        <time>2012-05-06T09:53:00Z</time>
      </trkpt>
      <trkpt lat="43.73472" lon="6.56555">
        <ele>1134</ele>
        <time>2012-05-06T09:53:14Z</time>
      </trkpt>
      <trkpt lat="43.73477" lon="6.56555">
        <ele>1136</ele>
        <time>2012-05-06T09:53:28Z</time>
      </trkpt>
      <trkpt lat="43.73487" lon="6.56556">
        <ele>1138</ele>
        <time>2012-05-06T09:53:43Z</time>
      </trkpt>
      <trkpt lat="43.73491" lon="6.56568">
        <ele>1140</ele>
        <time>2012-05-06T09:53:59Z</time>
      </trkpt>
      <trkpt lat="43.73493" lon="6.56569">
        <ele>1140</ele>
        <time>2012-05-06T09:54:15Z</time>
      </trkpt>
      <trkpt lat="43.73497" lon="6.56571">
        <ele>1139</ele>
        <time>2012-05-06T09:55:00Z</time>
      </trkpt>
      <trkpt lat="43.73497" lon="6.56569">
        <ele>1140</ele>
        <time>2012-05-06T09:57:46Z</time>
      </trkpt>
      <trkpt lat="43.73494" lon="6.56565">
        <ele>1141</ele>
        <time>2012-05-06T09:58:11Z</time>
      </trkpt>
      <trkpt lat="43.73502" lon="6.56562">
        <ele>1143</ele>
        <time>2012-05-06T09:59:28Z</time>
      </trkpt>
      <trkpt lat="43.7351" lon="6.56556">
        <ele>1145</ele>
        <time>2012-05-06T09:59:41Z</time>
      </trkpt>
      <trkpt lat="43.73518" lon="6.56552">
        <ele>1147</ele>
        <time>2012-05-06T09:59:55Z</time>
      </trkpt>
      <trkpt lat="43.73527" lon="6.5655">
        <ele>1148</ele>
        <time>2012-05-06T10:00:09Z</time>
      </trkpt>
      <trkpt lat="43.73537" lon="6.56551">
        <ele>1151</ele>
        <time>2012-05-06T10:00:26Z</time>
      </trkpt>
      <trkpt lat="43.73545" lon="6.56554">
        <ele>1153</ele>
        <time>2012-05-06T10:00:39Z</time>
      </trkpt>
      <trkpt lat="43.73552" lon="6.56559">
        <ele>1155</ele>
        <time>2012-05-06T10:00:54Z</time>
      </trkpt>
      <trkpt lat="43.73557" lon="6.56553">
        <ele>1158</ele>
        <time>2012-05-06T10:01:11Z</time>
      </trkpt>
      <trkpt lat="43.73565" lon="6.56547">
        <ele>1160</ele>
        <time>2012-05-06T10:01:29Z</time>
      </trkpt>
      <trkpt lat="43.73574" lon="6.56544">
        <ele>1163</ele>
        <time>2012-05-06T10:01:48Z</time>
      </trkpt>
      <trkpt lat="43.73584" lon="6.56554">
        <ele>1167</ele>
        <time>2012-05-06T10:02:12Z</time>
      </trkpt>
      <trkpt lat="43.73597" lon="6.56555">
        <ele>1169</ele>
        <time>2012-05-06T10:02:31Z</time>
      </trkpt>
      <trkpt lat="43.73607" lon="6.56553">
        <ele>1171</ele>
        <time>2012-05-06T10:02:47Z</time>
      </trkpt>
      <trkpt lat="43.73616" lon="6.56549">
        <ele>1173</ele>
        <time>2012-05-06T10:03:03Z</time>
      </trkpt>
      <trkpt lat="43.73626" lon="6.56548">
        <ele>1175</ele>
        <time>2012-05-06T10:03:19Z</time>
      </trkpt>
      <trkpt lat="43.73639" lon="6.5654">
        <ele>1177</ele>
        <time>2012-05-06T10:03:38Z</time>
      </trkpt>
      <trkpt lat="43.7365" lon="6.56538">
        <ele>1179</ele>
        <time>2012-05-06T10:03:58Z</time>
      </trkpt>
      <trkpt lat="43.7366" lon="6.56538">
        <ele>1181</ele>
        <time>2012-05-06T10:04:12Z</time>
      </trkpt>
      <trkpt lat="43.73672" lon="6.56535">
        <ele>1184</ele>
        <time>2012-05-06T10:04:31Z</time>
      </trkpt>
      <trkpt lat="43.73682" lon="6.56536">
        <ele>1186</ele>
        <time>2012-05-06T10:04:48Z</time>
      </trkpt>
      <trkpt lat="43.73697" lon="6.56538">
        <ele>1189</ele>
        <time>2012-05-06T10:05:08Z</time>
      </trkpt>
      <trkpt lat="43.73708" lon="6.56532">
        <ele>1191</ele>
        <time>2012-05-06T10:05:26Z</time>
      </trkpt>
      <trkpt lat="43.73721" lon="6.56529">
        <ele>1194</ele>
        <time>2012-05-06T10:05:47Z</time>
      </trkpt>
      <trkpt lat="43.7373" lon="6.56535">
        <ele>1195</ele>
        <time>2012-05-06T10:06:00Z</time>
      </trkpt>
      <trkpt lat="43.73741" lon="6.56535">
        <ele>1197</ele>
        <time>2012-05-06T10:06:15Z</time>
      </trkpt>
      <trkpt lat="43.73751" lon="6.56534">
        <ele>1199</ele>
        <time>2012-05-06T10:06:29Z</time>
      </trkpt>
      <trkpt lat="43.73761" lon="6.5654">
        <ele>1202</ele>
        <time>2012-05-06T10:06:46Z</time>
      </trkpt>
      <trkpt lat="43.73769" lon="6.56548">
        <ele>1204</ele>
        <time>2012-05-06T10:07:01Z</time>
      </trkpt>
      <trkpt lat="43.73778" lon="6.56558">
        <ele>1205</ele>
        <time>2012-05-06T10:07:17Z</time>
      </trkpt>
      <trkpt lat="43.73788" lon="6.56573">
        <ele>1207</ele>
        <time>2012-05-06T10:07:34Z</time>
      </trkpt>
      <trkpt lat="43.73794" lon="6.56585">
        <ele>1209</ele>
        <time>2012-05-06T10:07:50Z</time>
      </trkpt>
      <trkpt lat="43.73804" lon="6.56601">
        <ele>1210</ele>
        <time>2012-05-06T10:08:08Z</time>
      </trkpt>
      <trkpt lat="43.73813" lon="6.56611">
        <ele>1211</ele>
        <time>2012-05-06T10:08:18Z</time>
      </trkpt>
      <trkpt lat="43.7382" lon="6.56621">
        <ele>1212</ele>
        <time>2012-05-06T10:08:33Z</time>
      </trkpt>
      <trkpt lat="43.73824" lon="6.56628">
        <ele>1212</ele>
        <time>2012-05-06T10:08:40Z</time>
      </trkpt>
      <trkpt lat="43.73827" lon="6.5665">
        <ele>1212</ele>
        <time>2012-05-06T10:08:55Z</time>
      </trkpt>
      <trkpt lat="43.73834" lon="6.56659">
        <ele>1214</ele>
        <time>2012-05-06T10:09:11Z</time>
      </trkpt>
      <trkpt lat="43.73848" lon="6.56653">
        <ele>1216</ele>
        <time>2012-05-06T10:09:30Z</time>
      </trkpt>
      <trkpt lat="43.73859" lon="6.56656">
        <ele>1218</ele>
        <time>2012-05-06T10:09:44Z</time>
      </trkpt>
      <trkpt lat="43.73863" lon="6.56657">
        <ele>1218</ele>
        <time>2012-05-06T10:10:17Z</time>
      </trkpt>
      <trkpt lat="43.73862" lon="6.56659">
        <ele>1218</ele>
        <time>2012-05-06T10:11:26Z</time>
      </trkpt>
      <trkpt lat="43.73864" lon="6.56672">
        <ele>1219</ele>
        <time>2012-05-06T10:11:43Z</time>
      </trkpt>
      <trkpt lat="43.73864" lon="6.5669">
        <ele>1220</ele>
        <time>2012-05-06T10:11:59Z</time>
      </trkpt>
      <trkpt lat="43.73863" lon="6.56705">
        <ele>1223</ele>
        <time>2012-05-06T10:12:15Z</time>
      </trkpt>
      <trkpt lat="43.73859" lon="6.56722">
        <ele>1225</ele>
        <time>2012-05-06T10:12:31Z</time>
      </trkpt>
      <trkpt lat="43.73851" lon="6.56731">
        <ele>1226</ele>
        <time>2012-05-06T10:12:43Z</time>
      </trkpt>
      <trkpt lat="43.73839" lon="6.56737">
        <ele>1226</ele>
        <time>2012-05-06T10:12:56Z</time>
      </trkpt>
      <trkpt lat="43.73835" lon="6.56752">
        <ele>1228</ele>
        <time>2012-05-06T10:13:11Z</time>
      </trkpt>
      <trkpt lat="43.73841" lon="6.5677">
        <ele>1229</ele>
        <time>2012-05-06T10:13:29Z</time>
      </trkpt>
      <trkpt lat="43.7385" lon="6.56776">
        <ele>1231</ele>
        <time>2012-05-06T10:13:45Z</time>
      </trkpt>
      <trkpt lat="43.73858" lon="6.56777">
        <ele>1233</ele>
        <time>2012-05-06T10:14:01Z</time>
      </trkpt>
      <trkpt lat="43.73865" lon="6.56785">
        <ele>1235</ele>
        <time>2012-05-06T10:14:18Z</time>
      </trkpt>
      <trkpt lat="43.73871" lon="6.56799">
        <ele>1238</ele>
        <time>2012-05-06T10:14:36Z</time>
      </trkpt>
      <trkpt lat="43.73875" lon="6.56801">
        <ele>1240</ele>
        <time>2012-05-06T10:14:52Z</time>
      </trkpt>
      <trkpt lat="43.73875" lon="6.56809">
        <ele>1242</ele>
        <time>2012-05-06T10:15:05Z</time>
      </trkpt>
      <trkpt lat="43.73876" lon="6.56819">
        <ele>1245</ele>
        <time>2012-05-06T10:15:24Z</time>
      </trkpt>
      <trkpt lat="43.73882" lon="6.56818">
        <ele>1248</ele>
        <time>2012-05-06T10:15:42Z</time>
      </trkpt>
      <trkpt lat="43.73883" lon="6.56822">
        <ele>1251</ele>
        <time>2012-05-06T10:16:03Z</time>
      </trkpt>
      <trkpt lat="43.73888" lon="6.56832">
        <ele>1254</ele>
        <time>2012-05-06T10:16:20Z</time>
      </trkpt>
      <trkpt lat="43.73889" lon="6.56843">
        <ele>1257</ele>
        <time>2012-05-06T10:16:38Z</time>
      </trkpt>
      <trkpt lat="43.7389" lon="6.56841">
        <ele>1258</ele>
        <time>2012-05-06T10:16:54Z</time>
      </trkpt>
      <trkpt lat="43.73895" lon="6.56838">
        <ele>1260</ele>
        <time>2012-05-06T10:17:11Z</time>
      </trkpt>
      <trkpt lat="43.739" lon="6.56842">
        <ele>1262</ele>
        <time>2012-05-06T10:17:27Z</time>
      </trkpt>
      <trkpt lat="43.73907" lon="6.56843">
        <ele>1265</ele>
        <time>2012-05-06T10:17:48Z</time>
      </trkpt>
      <trkpt lat="43.73908" lon="6.56846">
        <ele>1267</ele>
        <time>2012-05-06T10:18:02Z</time>
      </trkpt>
      <trkpt lat="43.73908" lon="6.56858">
        <ele>1269</ele>
        <time>2012-05-06T10:18:20Z</time>
      </trkpt>
      <trkpt lat="43.73906" lon="6.56864">
        <ele>1271</ele>
        <time>2012-05-06T10:18:50Z</time>
      </trkpt>
      <trkpt lat="43.73912" lon="6.56862">
        <ele>1274</ele>
        <time>2012-05-06T10:19:05Z</time>
      </trkpt>
      <trkpt lat="43.73916" lon="6.56861">
        <ele>1275</ele>
        <time>2012-05-06T10:19:18Z</time>
      </trkpt>
      <trkpt lat="43.73923" lon="6.56867">
        <ele>1278</ele>
        <time>2012-05-06T10:19:36Z</time>
      </trkpt>
      <trkpt lat="43.73924" lon="6.56862">
        <ele>1279</ele>
        <time>2012-05-06T10:19:49Z</time>
      </trkpt>
      <trkpt lat="43.73928" lon="6.56861">
        <ele>1281</ele>
        <time>2012-05-06T10:20:03Z</time>
      </trkpt>
      <trkpt lat="43.73933" lon="6.56858">
        <ele>1282</ele>
        <time>2012-05-06T10:20:18Z</time>
      </trkpt>
      <trkpt lat="43.73935" lon="6.56858">
        <ele>1285</ele>
        <time>2012-05-06T10:20:46Z</time>
      </trkpt>
      <trkpt lat="43.73938" lon="6.5686">
        <ele>1286</ele>
        <time>2012-05-06T10:21:03Z</time>
      </trkpt>
      <trkpt lat="43.73944" lon="6.56863">
        <ele>1289</ele>
        <time>2012-05-06T10:21:23Z</time>
      </trkpt>
      <trkpt lat="43.73942" lon="6.56872">
        <ele>1290</ele>
        <time>2012-05-06T10:21:38Z</time>
      </trkpt>
      <trkpt lat="43.73941" lon="6.56879">
        <ele>1291</ele>
        <time>2012-05-06T10:21:56Z</time>
      </trkpt>
      <trkpt lat="43.73942" lon="6.56885">
        <ele>1293</ele>
        <time>2012-05-06T10:22:11Z</time>
      </trkpt>
      <trkpt lat="43.73942" lon="6.56894">
        <ele>1296</ele>
        <time>2012-05-06T10:22:27Z</time>
      </trkpt>
      <trkpt lat="43.73942" lon="6.56896">
        <ele>1297</ele>
        <time>2012-05-06T10:22:42Z</time>
      </trkpt>
      <trkpt lat="43.73945" lon="6.56893">
        <ele>1299</ele>
        <time>2012-05-06T10:23:03Z</time>
      </trkpt>
      <trkpt lat="43.73949" lon="6.5689">
        <ele>1301</ele>
        <time>2012-05-06T10:23:20Z</time>
      </trkpt>
      <trkpt lat="43.73953" lon="6.56888">
        <ele>1303</ele>
        <time>2012-05-06T10:24:53Z</time>
      </trkpt>
      <trkpt lat="43.7396" lon="6.56885">
        <ele>1306</ele>
        <time>2012-05-06T10:25:45Z</time>
      </trkpt>
      <trkpt lat="43.73968" lon="6.56883">
        <ele>1308</ele>
        <time>2012-05-06T10:26:02Z</time>
      </trkpt>
      <trkpt lat="43.73977" lon="6.56884">
        <ele>1310</ele>
        <time>2012-05-06T10:26:22Z</time>
      </trkpt>
      <trkpt lat="43.73984" lon="6.56885">
        <ele>1313</ele>
        <time>2012-05-06T10:26:43Z</time>
      </trkpt>
      <trkpt lat="43.73994" lon="6.56887">
        <ele>1315</ele>
        <time>2012-05-06T10:27:03Z</time>
      </trkpt>
      <trkpt lat="43.74002" lon="6.56895">
        <ele>1319</ele>
        <time>2012-05-06T10:27:22Z</time>
      </trkpt>
      <trkpt lat="43.74011" lon="6.56898">
        <ele>1321</ele>
        <time>2012-05-06T10:27:48Z</time>
      </trkpt>
      <trkpt lat="43.74018" lon="6.56903">
        <ele>1323</ele>
        <time>2012-05-06T10:28:06Z</time>
      </trkpt>
      <trkpt lat="43.74024" lon="6.56908">
        <ele>1325</ele>
        <time>2012-05-06T10:28:24Z</time>
      </trkpt>
      <trkpt lat="43.74032" lon="6.56911">
        <ele>1326</ele>
        <time>2012-05-06T10:28:44Z</time>
      </trkpt>
      <trkpt lat="43.74038" lon="6.56914">
        <ele>1326</ele>
        <time>2012-05-06T10:28:58Z</time>
      </trkpt>
      <trkpt lat="43.74036" lon="6.56917">
        <ele>1329</ele>
        <time>2012-05-06T10:29:23Z</time>
      </trkpt>
      <trkpt lat="43.7402" lon="6.56924">
        <ele>1332</ele>
        <time>2012-05-06T10:29:49Z</time>
      </trkpt>
      <trkpt lat="43.7402" lon="6.56926">
        <ele>1333</ele>
        <time>2012-05-06T10:30:04Z</time>
      </trkpt>
      <trkpt lat="43.74018" lon="6.56929">
        <ele>1335</ele>
        <time>2012-05-06T10:30:20Z</time>
      </trkpt>
      <trkpt lat="43.74024" lon="6.56936">
        <ele>1338</ele>
        <time>2012-05-06T10:31:04Z</time>
      </trkpt>
      <trkpt lat="43.74033" lon="6.56948">
        <ele>1341</ele>
        <time>2012-05-06T10:31:27Z</time>
      </trkpt>
      <trkpt lat="43.74039" lon="6.56956">
        <ele>1344</ele>
        <time>2012-05-06T10:31:49Z</time>
      </trkpt>
      <trkpt lat="43.74046" lon="6.56966">
        <ele>1347</ele>
        <time>2012-05-06T10:32:11Z</time>
      </trkpt>
      <trkpt lat="43.74039" lon="6.56974">
        <ele>1351</ele>
        <time>2012-05-06T10:32:35Z</time>
      </trkpt>
      <trkpt lat="43.74028" lon="6.56979">
        <ele>1352</ele>
        <time>2012-05-06T10:32:51Z</time>
      </trkpt>
      <trkpt lat="43.74023" lon="6.56982">
        <ele>1355</ele>
        <time>2012-05-06T10:33:10Z</time>
      </trkpt>
      <trkpt lat="43.7402" lon="6.56984">
        <ele>1358</ele>
        <time>2012-05-06T10:33:30Z</time>
      </trkpt>
      <trkpt lat="43.74024" lon="6.56988">
        <ele>1360</ele>
        <time>2012-05-06T10:33:49Z</time>
      </trkpt>
      <trkpt lat="43.74029" lon="6.57">
        <ele>1363</ele>
        <time>2012-05-06T10:34:07Z</time>
      </trkpt>
      <trkpt lat="43.74028" lon="6.57001">
        <ele>1365</ele>
        <time>2012-05-06T10:34:24Z</time>
      </trkpt>
      <trkpt lat="43.74027" lon="6.5701">
        <ele>1368</ele>
        <time>2012-05-06T10:34:43Z</time>
      </trkpt>
      <trkpt lat="43.74023" lon="6.57015">
        <ele>1370</ele>
        <time>2012-05-06T10:34:59Z</time>
      </trkpt>
      <trkpt lat="43.74021" lon="6.57018">
        <ele>1372</ele>
        <time>2012-05-06T10:35:15Z</time>
      </trkpt>
      <trkpt lat="43.74023" lon="6.57024">
        <ele>1375</ele>
        <time>2012-05-06T10:35:31Z</time>
      </trkpt>
      <trkpt lat="43.7402" lon="6.57031">
        <ele>1378</ele>
        <time>2012-05-06T10:36:15Z</time>
      </trkpt>
      <trkpt lat="43.74018" lon="6.57035">
        <ele>1380</ele>
        <time>2012-05-06T10:36:28Z</time>
      </trkpt>
      <trkpt lat="43.74022" lon="6.57034">
        <ele>1379</ele>
        <time>2012-05-06T10:36:41Z</time>
      </trkpt>
      <trkpt lat="43.74022" lon="6.57033">
        <ele>1381</ele>
        <time>2012-05-06T10:43:14Z</time>
      </trkpt>
      <trkpt lat="43.74027" lon="6.57039">
        <ele>1382</ele>
        <time>2012-05-06T10:44:08Z</time>
      </trkpt>
      <trkpt lat="43.74027" lon="6.57042">
        <ele>1382</ele>
        <time>2012-05-06T10:44:32Z</time>
      </trkpt>
      <trkpt lat="43.74032" lon="6.57046">
        <ele>1383</ele>
        <time>2012-05-06T10:46:23Z</time>
      </trkpt>
      <trkpt lat="43.74039" lon="6.57051">
        <ele>1385</ele>
        <time>2012-05-06T10:46:38Z</time>
      </trkpt>
      <trkpt lat="43.74046" lon="6.57058">
        <ele>1386</ele>
        <time>2012-05-06T10:46:52Z</time>
      </trkpt>
      <trkpt lat="43.74048" lon="6.57059">
        <ele>1387</ele>
        <time>2012-05-06T10:47:07Z</time>
      </trkpt>
      <trkpt lat="43.74059" lon="6.57071">
        <ele>1389</ele>
        <time>2012-05-06T10:47:26Z</time>
      </trkpt>
      <trkpt lat="43.74068" lon="6.57073">
        <ele>1390</ele>
        <time>2012-05-06T10:47:39Z</time>
      </trkpt>
      <trkpt lat="43.74078" lon="6.57074">
        <ele>1392</ele>
        <time>2012-05-06T10:47:53Z</time>
      </trkpt>
      <trkpt lat="43.74086" lon="6.57081">
        <ele>1393</ele>
        <time>2012-05-06T10:48:08Z</time>
      </trkpt>
      <trkpt lat="43.74092" lon="6.57086">
        <ele>1395</ele>
        <time>2012-05-06T10:48:23Z</time>
      </trkpt>
      <trkpt lat="43.74096" lon="6.57092">
        <ele>1398</ele>
        <time>2012-05-06T10:48:39Z</time>
      </trkpt>
      <trkpt lat="43.74105" lon="6.57099">
        <ele>1400</ele>
        <time>2012-05-06T10:48:55Z</time>
      </trkpt>
      <trkpt lat="43.74109" lon="6.57106">
        <ele>1401</ele>
        <time>2012-05-06T10:49:12Z</time>
      </trkpt>
      <trkpt lat="43.74121" lon="6.57114">
        <ele>1403</ele>
        <time>2012-05-06T10:49:29Z</time>
      </trkpt>
      <trkpt lat="43.74125" lon="6.57124">
        <ele>1406</ele>
        <time>2012-05-06T10:50:08Z</time>
      </trkpt>
      <trkpt lat="43.74137" lon="6.57135">
        <ele>1408</ele>
        <time>2012-05-06T10:50:27Z</time>
      </trkpt>
      <trkpt lat="43.74143" lon="6.5714">
        <ele>1410</ele>
        <time>2012-05-06T10:50:42Z</time>
      </trkpt>
      <trkpt lat="43.74152" lon="6.5714">
        <ele>1412</ele>
        <time>2012-05-06T10:50:55Z</time>
      </trkpt>
      <trkpt lat="43.74154" lon="6.57138">
        <ele>1413</ele>
        <time>2012-05-06T10:51:08Z</time>
      </trkpt>
      <trkpt lat="43.74156" lon="6.57142">
        <ele>1415</ele>
        <time>2012-05-06T10:51:27Z</time>
      </trkpt>
      <trkpt lat="43.74166" lon="6.57153">
        <ele>1417</ele>
        <time>2012-05-06T10:51:44Z</time>
      </trkpt>
      <trkpt lat="43.74165" lon="6.57166">
        <ele>1418</ele>
        <time>2012-05-06T10:51:59Z</time>
      </trkpt>
      <trkpt lat="43.74169" lon="6.57176">
        <ele>1421</ele>
        <time>2012-05-06T10:52:17Z</time>
      </trkpt>
      <trkpt lat="43.74177" lon="6.57186">
        <ele>1424</ele>
        <time>2012-05-06T10:52:41Z</time>
      </trkpt>
      <trkpt lat="43.74185" lon="6.5719">
        <ele>1425</ele>
        <time>2012-05-06T10:52:54Z</time>
      </trkpt>
      <trkpt lat="43.7419" lon="6.57201">
        <ele>1428</ele>
        <time>2012-05-06T10:53:13Z</time>
      </trkpt>
      <trkpt lat="43.74197" lon="6.57215">
        <ele>1429</ele>
        <time>2012-05-06T10:53:28Z</time>
      </trkpt>
      <trkpt lat="43.74202" lon="6.57226">
        <ele>1429</ele>
        <time>2012-05-06T10:53:44Z</time>
      </trkpt>
      <trkpt lat="43.74204" lon="6.57227">
        <ele>1429</ele>
        <time>2012-05-06T10:54:38Z</time>
      </trkpt>
      <trkpt lat="43.74206" lon="6.57241">
        <ele>1430</ele>
        <time>2012-05-06T10:54:52Z</time>
      </trkpt>
      <trkpt lat="43.74207" lon="6.57243">
        <ele>1430</ele>
        <time>2012-05-06T10:55:19Z</time>
      </trkpt>
      <trkpt lat="43.74213" lon="6.57256">
        <ele>1428</ele>
        <time>2012-05-06T10:55:41Z</time>
      </trkpt>
      <trkpt lat="43.74219" lon="6.57264">
        <ele>1427</ele>
        <time>2012-05-06T10:55:56Z</time>
      </trkpt>
      <trkpt lat="43.74225" lon="6.57272">
        <ele>1425</ele>
        <time>2012-05-06T10:56:11Z</time>
      </trkpt>
      <trkpt lat="43.74232" lon="6.57279">
        <ele>1423</ele>
        <time>2012-05-06T10:56:23Z</time>
      </trkpt>
      <trkpt lat="43.74242" lon="6.57285">
        <ele>1421</ele>
        <time>2012-05-06T10:56:38Z</time>
      </trkpt>
      <trkpt lat="43.74247" lon="6.57292">
        <ele>1419</ele>
        <time>2012-05-06T10:56:53Z</time>
      </trkpt>
      <trkpt lat="43.74252" lon="6.57295">
        <ele>1418</ele>
        <time>2012-05-06T10:57:02Z</time>
      </trkpt>
      <trkpt lat="43.7426" lon="6.57303">
        <ele>1416</ele>
        <time>2012-05-06T10:57:18Z</time>
      </trkpt>
      <trkpt lat="43.74261" lon="6.57314">
        <ele>1415</ele>
        <time>2012-05-06T10:57:33Z</time>
      </trkpt>
      <trkpt lat="43.74265" lon="6.57317">
        <ele>1414</ele>
        <time>2012-05-06T10:57:49Z</time>
      </trkpt>
      <trkpt lat="43.74271" lon="6.5733">
        <ele>1414</ele>
        <time>2012-05-06T10:58:13Z</time>
      </trkpt>
      <trkpt lat="43.74271" lon="6.57341">
        <ele>1413</ele>
        <time>2012-05-06T10:58:27Z</time>
      </trkpt>
      <trkpt lat="43.7427" lon="6.57349">
        <ele>1413</ele>
        <time>2012-05-06T10:58:40Z</time>
      </trkpt>
      <trkpt lat="43.74274" lon="6.57356">
        <ele>1413</ele>
        <time>2012-05-06T10:58:53Z</time>
      </trkpt>
      <trkpt lat="43.74278" lon="6.57367">
        <ele>1413</ele>
        <time>2012-05-06T10:59:10Z</time>
      </trkpt>
      <trkpt lat="43.74284" lon="6.57377">
        <ele>1412</ele>
        <time>2012-05-06T10:59:24Z</time>
      </trkpt>
      <trkpt lat="43.74284" lon="6.57379">
        <ele>1412</ele>
        <time>2012-05-06T10:59:26Z</time>
      </trkpt>
      <trkpt lat="43.74285" lon="6.57389">
        <ele>1412</ele>
        <time>2012-05-06T10:59:39Z</time>
      </trkpt>
      <trkpt lat="43.74288" lon="6.57399">
        <ele>1411</ele>
        <time>2012-05-06T10:59:54Z</time>
      </trkpt>
      <trkpt lat="43.74291" lon="6.57406">
        <ele>1411</ele>
        <time>2012-05-06T11:00:06Z</time>
      </trkpt>
      <trkpt lat="43.74296" lon="6.5742">
        <ele>1411</ele>
        <time>2012-05-06T11:00:21Z</time>
      </trkpt>
      <trkpt lat="43.74294" lon="6.57426">
        <ele>1410</ele>
        <time>2012-05-06T11:00:39Z</time>
      </trkpt>
      <trkpt lat="43.74294" lon="6.57431">
        <ele>1411</ele>
        <time>2012-05-06T11:01:10Z</time>
      </trkpt>
      <trkpt lat="43.74293" lon="6.5743">
        <ele>1411</ele>
        <time>2012-05-06T11:01:35Z</time>
      </trkpt>
      <trkpt lat="43.74291" lon="6.57436">
        <ele>1411</ele>
        <time>2012-05-06T11:01:55Z</time>
      </trkpt>
      <trkpt lat="43.74289" lon="6.57442">
        <ele>1412</ele>
        <time>2012-05-06T11:02:10Z</time>
      </trkpt>
      <trkpt lat="43.74288" lon="6.57453">
        <ele>1412</ele>
        <time>2012-05-06T11:02:21Z</time>
      </trkpt>
      <trkpt lat="43.74287" lon="6.57459">
        <ele>1412</ele>
        <time>2012-05-06T11:02:30Z</time>
      </trkpt>
      <trkpt lat="43.74283" lon="6.57471">
        <ele>1412</ele>
        <time>2012-05-06T11:02:40Z</time>
      </trkpt>
      <trkpt lat="43.74283" lon="6.5748">
        <ele>1411</ele>
        <time>2012-05-06T11:02:54Z</time>
      </trkpt>
      <trkpt lat="43.74282" lon="6.57492">
        <ele>1410</ele>
        <time>2012-05-06T11:03:09Z</time>
      </trkpt>
      <trkpt lat="43.74278" lon="6.57508">
        <ele>1408</ele>
        <time>2012-05-06T11:03:24Z</time>
      </trkpt>
      <trkpt lat="43.7428" lon="6.5752">
        <ele>1408</ele>
        <time>2012-05-06T11:03:40Z</time>
      </trkpt>
      <trkpt lat="43.74281" lon="6.57535">
        <ele>1408</ele>
        <time>2012-05-06T11:03:54Z</time>
      </trkpt>
      <trkpt lat="43.74282" lon="6.57549">
        <ele>1408</ele>
        <time>2012-05-06T11:04:07Z</time>
      </trkpt>
      <trkpt lat="43.74283" lon="6.57562">
        <ele>1407</ele>
        <time>2012-05-06T11:04:20Z</time>
      </trkpt>
      <trkpt lat="43.74288" lon="6.57571">
        <ele>1407</ele>
        <time>2012-05-06T11:04:32Z</time>
      </trkpt>
      <trkpt lat="43.74293" lon="6.57575">
        <ele>1407</ele>
        <time>2012-05-06T11:04:45Z</time>
      </trkpt>
      <trkpt lat="43.74297" lon="6.57583">
        <ele>1407</ele>
        <time>2012-05-06T11:04:57Z</time>
      </trkpt>
      <trkpt lat="43.74298" lon="6.57592">
        <ele>1408</ele>
        <time>2012-05-06T11:05:12Z</time>
      </trkpt>
      <trkpt lat="43.74299" lon="6.57606">
        <ele>1407</ele>
        <time>2012-05-06T11:05:27Z</time>
      </trkpt>
      <trkpt lat="43.74302" lon="6.57612">
        <ele>1408</ele>
        <time>2012-05-06T11:05:43Z</time>
      </trkpt>
      <trkpt lat="43.74307" lon="6.57626">
        <ele>1409</ele>
        <time>2012-05-06T11:05:58Z</time>
      </trkpt>
      <trkpt lat="43.74311" lon="6.57639">
        <ele>1410</ele>
        <time>2012-05-06T11:06:12Z</time>
      </trkpt>
      <trkpt lat="43.74315" lon="6.57646">
        <ele>1411</ele>
        <time>2012-05-06T11:06:26Z</time>
      </trkpt>
      <trkpt lat="43.7432" lon="6.57655">
        <ele>1413</ele>
        <time>2012-05-06T11:06:41Z</time>
      </trkpt>
      <trkpt lat="43.74323" lon="6.57657">
        <ele>1415</ele>
        <time>2012-05-06T11:06:55Z</time>
      </trkpt>
      <trkpt lat="43.74328" lon="6.57662">
        <ele>1418</ele>
        <time>2012-05-06T11:07:10Z</time>
      </trkpt>
      <trkpt lat="43.74327" lon="6.57674">
        <ele>1419</ele>
        <time>2012-05-06T11:07:25Z</time>
      </trkpt>
      <trkpt lat="43.74327" lon="6.57685">
        <ele>1419</ele>
        <time>2012-05-06T11:07:40Z</time>
      </trkpt>
      <trkpt lat="43.74326" lon="6.57687">
        <ele>1420</ele>
        <time>2012-05-06T11:08:09Z</time>
      </trkpt>
      <trkpt lat="43.74331" lon="6.577">
        <ele>1420</ele>
        <time>2012-05-06T11:09:00Z</time>
      </trkpt>
      <trkpt lat="43.74335" lon="6.5771">
        <ele>1420</ele>
        <time>2012-05-06T11:09:12Z</time>
      </trkpt>
      <trkpt lat="43.74339" lon="6.57725">
        <ele>1421</ele>
        <time>2012-05-06T11:09:25Z</time>
      </trkpt>
      <trkpt lat="43.74348" lon="6.57736">
        <ele>1419</ele>
        <time>2012-05-06T11:09:41Z</time>
      </trkpt>
      <trkpt lat="43.74349" lon="6.57739">
        <ele>1419</ele>
        <time>2012-05-06T11:09:43Z</time>
      </trkpt>
      <trkpt lat="43.74357" lon="6.57756">
        <ele>1420</ele>
        <time>2012-05-06T11:09:57Z</time>
      </trkpt>
      <trkpt lat="43.74362" lon="6.57768">
        <ele>1420</ele>
        <time>2012-05-06T11:10:07Z</time>
      </trkpt>
      <trkpt lat="43.74369" lon="6.57784">
        <ele>1420</ele>
        <time>2012-05-06T11:10:23Z</time>
      </trkpt>
      <trkpt lat="43.74373" lon="6.57794">
        <ele>1420</ele>
        <time>2012-05-06T11:10:35Z</time>
      </trkpt>
      <trkpt lat="43.74373" lon="6.57794">
        <ele>1420</ele>
        <time>2012-05-06T11:10:36Z</time>
      </trkpt>
      <trkpt lat="43.7438" lon="6.57807">
        <ele>1417</ele>
        <time>2012-05-06T11:10:52Z</time>
      </trkpt>
      <trkpt lat="43.74382" lon="6.57817">
        <ele>1416</ele>
        <time>2012-05-06T11:11:04Z</time>
      </trkpt>
      <trkpt lat="43.74384" lon="6.57827">
        <ele>1415</ele>
        <time>2012-05-06T11:11:19Z</time>
      </trkpt>
      <trkpt lat="43.74389" lon="6.57838">
        <ele>1414</ele>
        <time>2012-05-06T11:11:35Z</time>
      </trkpt>
      <trkpt lat="43.74391" lon="6.57855">
        <ele>1414</ele>
        <time>2012-05-06T11:11:51Z</time>
      </trkpt>
      <trkpt lat="43.74393" lon="6.57872">
        <ele>1413</ele>
        <time>2012-05-06T11:12:06Z</time>
      </trkpt>
      <trkpt lat="43.74396" lon="6.57878">
        <ele>1411</ele>
        <time>2012-05-06T11:12:19Z</time>
      </trkpt>
      <trkpt lat="43.74397" lon="6.57881">
        <ele>1410</ele>
        <time>2012-05-06T11:12:50Z</time>
      </trkpt>
      <trkpt lat="43.74397" lon="6.57888">
        <ele>1410</ele>
        <time>2012-05-06T11:12:55Z</time>
      </trkpt>
      <trkpt lat="43.74399" lon="6.57904">
        <ele>1409</ele>
        <time>2012-05-06T11:13:11Z</time>
      </trkpt>
      <trkpt lat="43.74402" lon="6.57911">
        <ele>1408</ele>
        <time>2012-05-06T11:13:34Z</time>
      </trkpt>
      <trkpt lat="43.74404" lon="6.57906">
        <ele>1407</ele>
        <time>2012-05-06T11:13:49Z</time>
      </trkpt>
      <trkpt lat="43.74403" lon="6.57906">
        <ele>1407</ele>
        <time>2012-05-06T11:14:09Z</time>
      </trkpt>
      <trkpt lat="43.74411" lon="6.57908">
        <ele>1404</ele>
        <time>2012-05-06T11:14:28Z</time>
      </trkpt>
      <trkpt lat="43.74417" lon="6.57909">
        <ele>1401</ele>
        <time>2012-05-06T11:14:43Z</time>
      </trkpt>
      <trkpt lat="43.74423" lon="6.57899">
        <ele>1399</ele>
        <time>2012-05-06T11:15:11Z</time>
      </trkpt>
      <trkpt lat="43.74425" lon="6.579">
        <ele>1397</ele>
        <time>2012-05-06T11:15:24Z</time>
      </trkpt>
      <trkpt lat="43.7443" lon="6.57902">
        <ele>1395</ele>
        <time>2012-05-06T11:15:37Z</time>
      </trkpt>
      <trkpt lat="43.74435" lon="6.57899">
        <ele>1392</ele>
        <time>2012-05-06T11:15:50Z</time>
      </trkpt>
      <trkpt lat="43.7444" lon="6.57897">
        <ele>1390</ele>
        <time>2012-05-06T11:16:04Z</time>
      </trkpt>
      <trkpt lat="43.74443" lon="6.57896">
        <ele>1389</ele>
        <time>2012-05-06T11:16:24Z</time>
      </trkpt>
      <trkpt lat="43.74448" lon="6.57893">
        <ele>1387</ele>
        <time>2012-05-06T11:16:57Z</time>
      </trkpt>
      <trkpt lat="43.74456" lon="6.57895">
        <ele>1384</ele>
        <time>2012-05-06T11:17:11Z</time>
      </trkpt>
      <trkpt lat="43.74461" lon="6.57895">
        <ele>1382</ele>
        <time>2012-05-06T11:17:23Z</time>
      </trkpt>
      <trkpt lat="43.74469" lon="6.57895">
        <ele>1379</ele>
        <time>2012-05-06T11:17:37Z</time>
      </trkpt>
      <trkpt lat="43.74474" lon="6.57898">
        <ele>1376</ele>
        <time>2012-05-06T11:17:49Z</time>
      </trkpt>
      <trkpt lat="43.74481" lon="6.57899">
        <ele>1373</ele>
        <time>2012-05-06T11:18:01Z</time>
      </trkpt>
      <trkpt lat="43.74484" lon="6.57893">
        <ele>1370</ele>
        <time>2012-05-06T11:18:16Z</time>
      </trkpt>
      <trkpt lat="43.7449" lon="6.57897">
        <ele>1368</ele>
        <time>2012-05-06T11:18:30Z</time>
      </trkpt>
      <trkpt lat="43.74495" lon="6.5789">
        <ele>1365</ele>
        <time>2012-05-06T11:18:44Z</time>
      </trkpt>
      <trkpt lat="43.74499" lon="6.57884">
        <ele>1362</ele>
        <time>2012-05-06T11:18:58Z</time>
      </trkpt>
      <trkpt lat="43.74502" lon="6.5788">
        <ele>1360</ele>
        <time>2012-05-06T11:19:14Z</time>
      </trkpt>
      <trkpt lat="43.74507" lon="6.57876">
        <ele>1358</ele>
        <time>2012-05-06T11:19:27Z</time>
      </trkpt>
      <trkpt lat="43.74511" lon="6.57875">
        <ele>1355</ele>
        <time>2012-05-06T11:19:43Z</time>
      </trkpt>
      <trkpt lat="43.74517" lon="6.57873">
        <ele>1352</ele>
        <time>2012-05-06T11:19:57Z</time>
      </trkpt>
      <trkpt lat="43.74526" lon="6.57875">
        <ele>1349</ele>
        <time>2012-05-06T11:20:11Z</time>
      </trkpt>
      <trkpt lat="43.7453" lon="6.57874">
        <ele>1346</ele>
        <time>2012-05-06T11:20:18Z</time>
      </trkpt>
      <trkpt lat="43.74537" lon="6.57868">
        <ele>1344</ele>
        <time>2012-05-06T11:20:33Z</time>
      </trkpt>
      <trkpt lat="43.74543" lon="6.57866">
        <ele>1341</ele>
        <time>2012-05-06T11:20:46Z</time>
      </trkpt>
      <trkpt lat="43.74544" lon="6.57866">
        <ele>1340</ele>
        <time>2012-05-06T11:21:01Z</time>
      </trkpt>
      <trkpt lat="43.74546" lon="6.57863">
        <ele>1339</ele>
        <time>2012-05-06T11:21:20Z</time>
      </trkpt>
      <trkpt lat="43.74553" lon="6.57871">
        <ele>1339</ele>
        <time>2012-05-06T11:25:12Z</time>
      </trkpt>
      <trkpt lat="43.74557" lon="6.57867">
        <ele>1336</ele>
        <time>2012-05-06T11:25:27Z</time>
      </trkpt>
      <trkpt lat="43.74562" lon="6.57864">
        <ele>1334</ele>
        <time>2012-05-06T11:25:46Z</time>
      </trkpt>
      <trkpt lat="43.74566" lon="6.57863">
        <ele>1333</ele>
        <time>2012-05-06T11:26:02Z</time>
      </trkpt>
      <trkpt lat="43.74569" lon="6.57857">
        <ele>1330</ele>
        <time>2012-05-06T11:26:15Z</time>
      </trkpt>
      <trkpt lat="43.74571" lon="6.57845">
        <ele>1327</ele>
        <time>2012-05-06T11:26:28Z</time>
      </trkpt>
      <trkpt lat="43.74576" lon="6.57834">
        <ele>1323</ele>
        <time>2012-05-06T11:26:42Z</time>
      </trkpt>
      <trkpt lat="43.7458" lon="6.57827">
        <ele>1321</ele>
        <time>2012-05-06T11:26:56Z</time>
      </trkpt>
      <trkpt lat="43.74584" lon="6.57823">
        <ele>1320</ele>
        <time>2012-05-06T11:27:13Z</time>
      </trkpt>
      <trkpt lat="43.74593" lon="6.5782">
        <ele>1317</ele>
        <time>2012-05-06T11:27:27Z</time>
      </trkpt>
      <trkpt lat="43.74599" lon="6.57816">
        <ele>1314</ele>
        <time>2012-05-06T11:27:39Z</time>
      </trkpt>
      <trkpt lat="43.74601" lon="6.57807">
        <ele>1312</ele>
        <time>2012-05-06T11:27:54Z</time>
      </trkpt>
      <trkpt lat="43.74603" lon="6.57801">
        <ele>1309</ele>
        <time>2012-05-06T11:28:03Z</time>
      </trkpt>
      <trkpt lat="43.74606" lon="6.57793">
        <ele>1307</ele>
        <time>2012-05-06T11:28:18Z</time>
      </trkpt>
      <trkpt lat="43.74608" lon="6.57787">
        <ele>1306</ele>
        <time>2012-05-06T11:28:34Z</time>
      </trkpt>
      <trkpt lat="43.74614" lon="6.57777">
        <ele>1303</ele>
        <time>2012-05-06T11:29:08Z</time>
      </trkpt>
      <trkpt lat="43.74618" lon="6.57765">
        <ele>1300</ele>
        <time>2012-05-06T11:29:21Z</time>
      </trkpt>
      <trkpt lat="43.74624" lon="6.57753">
        <ele>1297</ele>
        <time>2012-05-06T11:29:35Z</time>
      </trkpt>
      <trkpt lat="43.74625" lon="6.57745">
        <ele>1295</ele>
        <time>2012-05-06T11:29:48Z</time>
      </trkpt>
      <trkpt lat="43.74629" lon="6.57736">
        <ele>1293</ele>
        <time>2012-05-06T11:30:03Z</time>
      </trkpt>
      <trkpt lat="43.74634" lon="6.5773">
        <ele>1291</ele>
        <time>2012-05-06T11:30:16Z</time>
      </trkpt>
      <trkpt lat="43.7464" lon="6.57728">
        <ele>1289</ele>
        <time>2012-05-06T11:30:37Z</time>
      </trkpt>
      <trkpt lat="43.74645" lon="6.57719">
        <ele>1287</ele>
        <time>2012-05-06T11:30:53Z</time>
      </trkpt>
      <trkpt lat="43.74652" lon="6.57713">
        <ele>1284</ele>
        <time>2012-05-06T11:31:03Z</time>
      </trkpt>
      <trkpt lat="43.74657" lon="6.57705">
        <ele>1282</ele>
        <time>2012-05-06T11:31:18Z</time>
      </trkpt>
      <trkpt lat="43.74661" lon="6.57693">
        <ele>1278</ele>
        <time>2012-05-06T11:31:34Z</time>
      </trkpt>
      <trkpt lat="43.74669" lon="6.57695">
        <ele>1276</ele>
        <time>2012-05-06T11:31:46Z</time>
      </trkpt>
      <trkpt lat="43.74678" lon="6.57699">
        <ele>1272</ele>
        <time>2012-05-06T11:32:02Z</time>
      </trkpt>
      <trkpt lat="43.74682" lon="6.57701">
        <ele>1271</ele>
        <time>2012-05-06T11:32:24Z</time>
      </trkpt>
      <trkpt lat="43.74689" lon="6.577">
        <ele>1269</ele>
        <time>2012-05-06T11:32:41Z</time>
      </trkpt>
      <trkpt lat="43.74696" lon="6.57692">
        <ele>1266</ele>
        <time>2012-05-06T11:32:57Z</time>
      </trkpt>
      <trkpt lat="43.74699" lon="6.57691">
        <ele>1264</ele>
        <time>2012-05-06T11:33:13Z</time>
      </trkpt>
      <trkpt lat="43.74703" lon="6.57687">
        <ele>1262</ele>
        <time>2012-05-06T11:33:32Z</time>
      </trkpt>
      <trkpt lat="43.74706" lon="6.57686">
        <ele>1260</ele>
        <time>2012-05-06T11:33:37Z</time>
      </trkpt>
      <trkpt lat="43.74712" lon="6.5768">
        <ele>1258</ele>
        <time>2012-05-06T11:33:52Z</time>
      </trkpt>
      <trkpt lat="43.7472" lon="6.57677">
        <ele>1254</ele>
        <time>2012-05-06T11:34:05Z</time>
      </trkpt>
      <trkpt lat="43.74725" lon="6.57674">
        <ele>1252</ele>
        <time>2012-05-06T11:34:21Z</time>
      </trkpt>
      <trkpt lat="43.74729" lon="6.57674">
        <ele>1250</ele>
        <time>2012-05-06T11:34:39Z</time>
      </trkpt>
      <trkpt lat="43.74732" lon="6.57674">
        <ele>1248</ele>
        <time>2012-05-06T11:34:56Z</time>
      </trkpt>
      <trkpt lat="43.7474" lon="6.57678">
        <ele>1245</ele>
        <time>2012-05-06T11:35:15Z</time>
      </trkpt>
      <trkpt lat="43.74751" lon="6.57688">
        <ele>1242</ele>
        <time>2012-05-06T11:35:33Z</time>
      </trkpt>
      <trkpt lat="43.74759" lon="6.57697">
        <ele>1240</ele>
        <time>2012-05-06T11:35:52Z</time>
      </trkpt>
      <trkpt lat="43.74764" lon="6.57701">
        <ele>1238</ele>
        <time>2012-05-06T11:36:20Z</time>
      </trkpt>
      <trkpt lat="43.74767" lon="6.57693">
        <ele>1236</ele>
        <time>2012-05-06T11:36:33Z</time>
      </trkpt>
      <trkpt lat="43.74772" lon="6.57694">
        <ele>1234</ele>
        <time>2012-05-06T11:36:45Z</time>
      </trkpt>
      <trkpt lat="43.74777" lon="6.57698">
        <ele>1232</ele>
        <time>2012-05-06T11:36:58Z</time>
      </trkpt>
      <trkpt lat="43.74778" lon="6.57699">
        <ele>1232</ele>
        <time>2012-05-06T11:37:17Z</time>
      </trkpt>
      <trkpt lat="43.74784" lon="6.577">
        <ele>1229</ele>
        <time>2012-05-06T11:37:30Z</time>
      </trkpt>
      <trkpt lat="43.74789" lon="6.577">
        <ele>1228</ele>
        <time>2012-05-06T11:37:45Z</time>
      </trkpt>
      <trkpt lat="43.74792" lon="6.57702">
        <ele>1226</ele>
        <time>2012-05-06T11:38:02Z</time>
      </trkpt>
      <trkpt lat="43.74798" lon="6.57705">
        <ele>1224</ele>
        <time>2012-05-06T11:38:17Z</time>
      </trkpt>
      <trkpt lat="43.74805" lon="6.57711">
        <ele>1221</ele>
        <time>2012-05-06T11:38:30Z</time>
      </trkpt>
      <trkpt lat="43.74808" lon="6.57714">
        <ele>1221</ele>
        <time>2012-05-06T11:38:48Z</time>
      </trkpt>
      <trkpt lat="43.74813" lon="6.57719">
        <ele>1220</ele>
        <time>2012-05-06T11:39:14Z</time>
      </trkpt>
      <trkpt lat="43.74819" lon="6.5772">
        <ele>1218</ele>
        <time>2012-05-06T11:39:27Z</time>
      </trkpt>
      <trkpt lat="43.74828" lon="6.57724">
        <ele>1215</ele>
        <time>2012-05-06T11:39:44Z</time>
      </trkpt>
      <trkpt lat="43.74834" lon="6.57729">
        <ele>1212</ele>
        <time>2012-05-06T11:40:35Z</time>
      </trkpt>
      <trkpt lat="43.74843" lon="6.57729">
        <ele>1209</ele>
        <time>2012-05-06T11:40:49Z</time>
      </trkpt>
      <trkpt lat="43.74848" lon="6.57732">
        <ele>1208</ele>
        <time>2012-05-06T11:41:01Z</time>
      </trkpt>
      <trkpt lat="43.74854" lon="6.57733">
        <ele>1204</ele>
        <time>2012-05-06T11:41:16Z</time>
      </trkpt>
      <trkpt lat="43.74857" lon="6.57734">
        <ele>1204</ele>
        <time>2012-05-06T11:41:20Z</time>
      </trkpt>
      <trkpt lat="43.74865" lon="6.57742">
        <ele>1202</ele>
        <time>2012-05-06T11:41:35Z</time>
      </trkpt>
      <trkpt lat="43.74873" lon="6.57754">
        <ele>1200</ele>
        <time>2012-05-06T11:41:50Z</time>
      </trkpt>
      <trkpt lat="43.74878" lon="6.57766">
        <ele>1198</ele>
        <time>2012-05-06T11:42:03Z</time>
      </trkpt>
      <trkpt lat="43.74879" lon="6.5777">
        <ele>1198</ele>
        <time>2012-05-06T11:42:06Z</time>
      </trkpt>
      <trkpt lat="43.74879" lon="6.57779">
        <ele>1198</ele>
        <time>2012-05-06T11:42:20Z</time>
      </trkpt>
      <trkpt lat="43.74879" lon="6.57782">
        <ele>1198</ele>
        <time>2012-05-06T11:42:40Z</time>
      </trkpt>
      <trkpt lat="43.74878" lon="6.57782">
        <ele>1198</ele>
        <time>2012-05-06T11:43:01Z</time>
      </trkpt>
      <trkpt lat="43.7488" lon="6.57791">
        <ele>1197</ele>
        <time>2012-05-06T11:43:36Z</time>
      </trkpt>
      <trkpt lat="43.74879" lon="6.57805">
        <ele>1196</ele>
        <time>2012-05-06T11:43:50Z</time>
      </trkpt>
      <trkpt lat="43.7488" lon="6.57808">
        <ele>1196</ele>
        <time>2012-05-06T11:43:52Z</time>
      </trkpt>
      <trkpt lat="43.74882" lon="6.57825">
        <ele>1196</ele>
        <time>2012-05-06T11:44:07Z</time>
      </trkpt>
      <trkpt lat="43.74883" lon="6.57834">
        <ele>1195</ele>
        <time>2012-05-06T11:44:32Z</time>
      </trkpt>
      <trkpt lat="43.74885" lon="6.57846">
        <ele>1193</ele>
        <time>2012-05-06T11:44:51Z</time>
      </trkpt>
      <trkpt lat="43.74888" lon="6.57864">
        <ele>1192</ele>
        <time>2012-05-06T11:45:07Z</time>
      </trkpt>
      <trkpt lat="43.74889" lon="6.57868">
        <ele>1191</ele>
        <time>2012-05-06T11:45:10Z</time>
      </trkpt>
      <trkpt lat="43.74896" lon="6.57883">
        <ele>1189</ele>
        <time>2012-05-06T11:45:25Z</time>
      </trkpt>
      <trkpt lat="43.74898" lon="6.57893">
        <ele>1188</ele>
        <time>2012-05-06T11:45:44Z</time>
      </trkpt>
      <trkpt lat="43.74905" lon="6.57903">
        <ele>1185</ele>
        <time>2012-05-06T11:46:05Z</time>
      </trkpt>
      <trkpt lat="43.74909" lon="6.57906">
        <ele>1183</ele>
        <time>2012-05-06T11:46:19Z</time>
      </trkpt>
      <trkpt lat="43.74914" lon="6.57911">
        <ele>1181</ele>
        <time>2012-05-06T11:46:33Z</time>
      </trkpt>
      <trkpt lat="43.74919" lon="6.57916">
        <ele>1179</ele>
        <time>2012-05-06T11:46:47Z</time>
      </trkpt>
      <trkpt lat="43.74923" lon="6.57923">
        <ele>1178</ele>
        <time>2012-05-06T11:47:01Z</time>
      </trkpt>
      <trkpt lat="43.7493" lon="6.57929">
        <ele>1175</ele>
        <time>2012-05-06T11:47:25Z</time>
      </trkpt>
      <trkpt lat="43.74938" lon="6.57939">
        <ele>1172</ele>
        <time>2012-05-06T11:47:44Z</time>
      </trkpt>
      <trkpt lat="43.74947" lon="6.57953">
        <ele>1169</ele>
        <time>2012-05-06T11:48:02Z</time>
      </trkpt>
      <trkpt lat="43.74953" lon="6.5796">
        <ele>1166</ele>
        <time>2012-05-06T11:48:19Z</time>
      </trkpt>
      <trkpt lat="43.74961" lon="6.57966">
        <ele>1163</ele>
        <time>2012-05-06T11:48:32Z</time>
      </trkpt>
      <trkpt lat="43.74963" lon="6.57967">
        <ele>1163</ele>
        <time>2012-05-06T11:48:34Z</time>
      </trkpt>
      <trkpt lat="43.74968" lon="6.57974">
        <ele>1160</ele>
        <time>2012-05-06T11:48:47Z</time>
      </trkpt>
      <trkpt lat="43.74976" lon="6.57982">
        <ele>1158</ele>
        <time>2012-05-06T11:49:03Z</time>
      </trkpt>
      <trkpt lat="43.74984" lon="6.57989">
        <ele>1154</ele>
        <time>2012-05-06T11:49:17Z</time>
      </trkpt>
      <trkpt lat="43.74987" lon="6.57992">
        <ele>1153</ele>
        <time>2012-05-06T11:49:22Z</time>
      </trkpt>
      <trkpt lat="43.74989" lon="6.57998">
        <ele>1153</ele>
        <time>2012-05-06T11:49:42Z</time>
      </trkpt>
      <trkpt lat="43.74996" lon="6.58001">
        <ele>1149</ele>
        <time>2012-05-06T11:49:56Z</time>
      </trkpt>
      <trkpt lat="43.75008" lon="6.58004">
        <ele>1147</ele>
        <time>2012-05-06T11:50:12Z</time>
      </trkpt>
      <trkpt lat="43.75018" lon="6.58009">
        <ele>1144</ele>
        <time>2012-05-06T11:50:27Z</time>
      </trkpt>
      <trkpt lat="43.75028" lon="6.58013">
        <ele>1142</ele>
        <time>2012-05-06T11:50:42Z</time>
      </trkpt>
      <trkpt lat="43.75037" lon="6.5802">
        <ele>1139</ele>
        <time>2012-05-06T11:50:58Z</time>
      </trkpt>
      <trkpt lat="43.75046" lon="6.58024">
        <ele>1136</ele>
        <time>2012-05-06T11:51:12Z</time>
      </trkpt>
      <trkpt lat="43.75056" lon="6.58028">
        <ele>1134</ele>
        <time>2012-05-06T11:51:25Z</time>
      </trkpt>
      <trkpt lat="43.75064" lon="6.58032">
        <ele>1132</ele>
        <time>2012-05-06T11:51:38Z</time>
      </trkpt>
      <trkpt lat="43.75069" lon="6.5803">
        <ele>1130</ele>
        <time>2012-05-06T11:51:53Z</time>
      </trkpt>
      <trkpt lat="43.75075" lon="6.58023">
        <ele>1130</ele>
        <time>2012-05-06T11:52:05Z</time>
      </trkpt>
      <trkpt lat="43.75078" lon="6.58022">
        <ele>1130</ele>
        <time>2012-05-06T11:52:09Z</time>
      </trkpt>
      <trkpt lat="43.75089" lon="6.58026">
        <ele>1127</ele>
        <time>2012-05-06T11:52:23Z</time>
      </trkpt>
      <trkpt lat="43.75092" lon="6.58028">
        <ele>1126</ele>
        <time>2012-05-06T11:52:27Z</time>
      </trkpt>
      <trkpt lat="43.751" lon="6.58032">
        <ele>1125</ele>
        <time>2012-05-06T11:52:43Z</time>
      </trkpt>
      <trkpt lat="43.75102" lon="6.58034">
        <ele>1125</ele>
        <time>2012-05-06T11:53:21Z</time>
      </trkpt>
      <trkpt lat="43.75102" lon="6.58031">
        <ele>1122</ele>
        <time>2012-05-06T12:26:34Z</time>
      </trkpt>
      <trkpt lat="43.75102" lon="6.58046">
        <ele>1120</ele>
        <time>2012-05-06T12:50:24Z</time>
      </trkpt>
      <trkpt lat="43.75098" lon="6.58057">
        <ele>1120</ele>
        <time>2012-05-06T12:50:38Z</time>
      </trkpt>
      <trkpt lat="43.75094" lon="6.58063">
        <ele>1122</ele>
        <time>2012-05-06T12:50:53Z</time>
      </trkpt>
      <trkpt lat="43.75102" lon="6.58067">
        <ele>1120</ele>
        <time>2012-05-06T12:51:10Z</time>
      </trkpt>
      <trkpt lat="43.75106" lon="6.58071">
        <ele>1119</ele>
        <time>2012-05-06T12:51:25Z</time>
      </trkpt>
      <trkpt lat="43.75116" lon="6.58081">
        <ele>1118</ele>
        <time>2012-05-06T12:51:51Z</time>
      </trkpt>
      <trkpt lat="43.75118" lon="6.58083">
        <ele>1117</ele>
        <time>2012-05-06T12:51:58Z</time>
      </trkpt>
      <trkpt lat="43.75123" lon="6.58087">
        <ele>1116</ele>
        <time>2012-05-06T12:52:05Z</time>
      </trkpt>
      <trkpt lat="43.7513" lon="6.58096">
        <ele>1114</ele>
        <time>2012-05-06T12:52:18Z</time>
      </trkpt>
      <trkpt lat="43.75138" lon="6.58103">
        <ele>1112</ele>
        <time>2012-05-06T12:52:30Z</time>
      </trkpt>
      <trkpt lat="43.75145" lon="6.58111">
        <ele>1110</ele>
        <time>2012-05-06T12:52:42Z</time>
      </trkpt>
      <trkpt lat="43.75156" lon="6.58118">
        <ele>1108</ele>
        <time>2012-05-06T12:52:56Z</time>
      </trkpt>
      <trkpt lat="43.7517" lon="6.58128">
        <ele>1105</ele>
        <time>2012-05-06T12:53:13Z</time>
      </trkpt>
      <trkpt lat="43.75181" lon="6.58141">
        <ele>1103</ele>
        <time>2012-05-06T12:53:25Z</time>
      </trkpt>
      <trkpt lat="43.75184" lon="6.58161">
        <ele>1103</ele>
        <time>2012-05-06T12:53:38Z</time>
      </trkpt>
      <trkpt lat="43.75188" lon="6.58171">
        <ele>1103</ele>
        <time>2012-05-06T12:53:43Z</time>
      </trkpt>
      <trkpt lat="43.75189" lon="6.58181">
        <ele>1103</ele>
        <time>2012-05-06T12:53:49Z</time>
      </trkpt>
      <trkpt lat="43.75194" lon="6.58202">
        <ele>1102</ele>
        <time>2012-05-06T12:54:04Z</time>
      </trkpt>
      <trkpt lat="43.75199" lon="6.58218">
        <ele>1101</ele>
        <time>2012-05-06T12:54:17Z</time>
      </trkpt>
      <trkpt lat="43.75203" lon="6.58234">
        <ele>1100</ele>
        <time>2012-05-06T12:54:29Z</time>
      </trkpt>
      <trkpt lat="43.7521" lon="6.58248">
        <ele>1099</ele>
        <time>2012-05-06T12:54:43Z</time>
      </trkpt>
      <trkpt lat="43.75212" lon="6.58254">
        <ele>1098</ele>
        <time>2012-05-06T12:54:49Z</time>
      </trkpt>
      <trkpt lat="43.7522" lon="6.58272">
        <ele>1096</ele>
        <time>2012-05-06T12:55:04Z</time>
      </trkpt>
      <trkpt lat="43.75231" lon="6.5829">
        <ele>1093</ele>
        <time>2012-05-06T12:55:20Z</time>
      </trkpt>
      <trkpt lat="43.75237" lon="6.58306">
        <ele>1091</ele>
        <time>2012-05-06T12:55:39Z</time>
      </trkpt>
      <trkpt lat="43.75239" lon="6.58312">
        <ele>1090</ele>
        <time>2012-05-06T12:55:43Z</time>
      </trkpt>
      <trkpt lat="43.75248" lon="6.58324">
        <ele>1088</ele>
        <time>2012-05-06T12:56:01Z</time>
      </trkpt>
      <trkpt lat="43.7526" lon="6.58328">
        <ele>1086</ele>
        <time>2012-05-06T12:56:07Z</time>
      </trkpt>
      <trkpt lat="43.75271" lon="6.58311">
        <ele>1084</ele>
        <time>2012-05-06T12:56:25Z</time>
      </trkpt>
      <trkpt lat="43.75278" lon="6.58295">
        <ele>1082</ele>
        <time>2012-05-06T12:56:40Z</time>
      </trkpt>
      <trkpt lat="43.75278" lon="6.58291">
        <ele>1082</ele>
        <time>2012-05-06T12:56:43Z</time>
      </trkpt>
      <trkpt lat="43.75281" lon="6.58283">
        <ele>1081</ele>
        <time>2012-05-06T12:56:50Z</time>
      </trkpt>
      <trkpt lat="43.75282" lon="6.58278">
        <ele>1081</ele>
        <time>2012-05-06T12:56:53Z</time>
      </trkpt>
      <trkpt lat="43.75284" lon="6.5825">
        <ele>1080</ele>
        <time>2012-05-06T12:57:09Z</time>
      </trkpt>
      <trkpt lat="43.75285" lon="6.58231">
        <ele>1079</ele>
        <time>2012-05-06T12:57:22Z</time>
      </trkpt>
      <trkpt lat="43.75288" lon="6.58214">
        <ele>1077</ele>
        <time>2012-05-06T12:57:36Z</time>
      </trkpt>
      <trkpt lat="43.75297" lon="6.58216">
        <ele>1075</ele>
        <time>2012-05-06T12:57:51Z</time>
      </trkpt>
      <trkpt lat="43.75302" lon="6.58232">
        <ele>1072</ele>
        <time>2012-05-06T12:58:07Z</time>
      </trkpt>
      <trkpt lat="43.7531" lon="6.5825">
        <ele>1071</ele>
        <time>2012-05-06T12:58:22Z</time>
      </trkpt>
      <trkpt lat="43.75315" lon="6.58263">
        <ele>1068</ele>
        <time>2012-05-06T12:58:36Z</time>
      </trkpt>
      <trkpt lat="43.75322" lon="6.58278">
        <ele>1067</ele>
        <time>2012-05-06T12:58:50Z</time>
      </trkpt>
      <trkpt lat="43.75327" lon="6.58288">
        <ele>1066</ele>
        <time>2012-05-06T12:58:59Z</time>
      </trkpt>
      <trkpt lat="43.75336" lon="6.58309">
        <ele>1064</ele>
        <time>2012-05-06T12:59:14Z</time>
      </trkpt>
      <trkpt lat="43.75337" lon="6.58311">
        <ele>1064</ele>
        <time>2012-05-06T12:59:16Z</time>
      </trkpt>
      <trkpt lat="43.75343" lon="6.58328">
        <ele>1062</ele>
        <time>2012-05-06T12:59:32Z</time>
      </trkpt>
      <trkpt lat="43.75348" lon="6.58338">
        <ele>1060</ele>
        <time>2012-05-06T12:59:44Z</time>
      </trkpt>
      <trkpt lat="43.75354" lon="6.58345">
        <ele>1058</ele>
        <time>2012-05-06T12:59:51Z</time>
      </trkpt>
      <trkpt lat="43.75361" lon="6.58361">
        <ele>1057</ele>
        <time>2012-05-06T13:00:04Z</time>
      </trkpt>
      <trkpt lat="43.75371" lon="6.58383">
        <ele>1054</ele>
        <time>2012-05-06T13:00:23Z</time>
      </trkpt>
      <trkpt lat="43.75378" lon="6.58401">
        <ele>1052</ele>
        <time>2012-05-06T13:00:35Z</time>
      </trkpt>
      <trkpt lat="43.75381" lon="6.58409">
        <ele>1050</ele>
        <time>2012-05-06T13:00:44Z</time>
      </trkpt>
      <trkpt lat="43.75394" lon="6.58409">
        <ele>1048</ele>
        <time>2012-05-06T13:00:58Z</time>
      </trkpt>
      <trkpt lat="43.75394" lon="6.58408">
        <ele>1048</ele>
        <time>2012-05-06T13:00:59Z</time>
      </trkpt>
      <trkpt lat="43.75398" lon="6.58394">
        <ele>1047</ele>
        <time>2012-05-06T13:01:13Z</time>
      </trkpt>
      <trkpt lat="43.75399" lon="6.58393">
        <ele>1047</ele>
        <time>2012-05-06T13:01:14Z</time>
      </trkpt>
      <trkpt lat="43.75401" lon="6.58374">
        <ele>1045</ele>
        <time>2012-05-06T13:01:29Z</time>
      </trkpt>
      <trkpt lat="43.75405" lon="6.58354">
        <ele>1044</ele>
        <time>2012-05-06T13:01:44Z</time>
      </trkpt>
      <trkpt lat="43.75408" lon="6.58334">
        <ele>1042</ele>
        <time>2012-05-06T13:01:57Z</time>
      </trkpt>
      <trkpt lat="43.75408" lon="6.58312">
        <ele>1041</ele>
        <time>2012-05-06T13:02:13Z</time>
      </trkpt>
      <trkpt lat="43.75409" lon="6.58294">
        <ele>1040</ele>
        <time>2012-05-06T13:02:26Z</time>
      </trkpt>
      <trkpt lat="43.75408" lon="6.58274">
        <ele>1039</ele>
        <time>2012-05-06T13:02:41Z</time>
      </trkpt>
      <trkpt lat="43.75408" lon="6.58257">
        <ele>1038</ele>
        <time>2012-05-06T13:02:55Z</time>
      </trkpt>
      <trkpt lat="43.75413" lon="6.58249">
        <ele>1037</ele>
        <time>2012-05-06T13:03:10Z</time>
      </trkpt>
      <trkpt lat="43.75417" lon="6.58258">
        <ele>1035</ele>
        <time>2012-05-06T13:05:13Z</time>
      </trkpt>
      <trkpt lat="43.75419" lon="6.58269">
        <ele>1035</ele>
        <time>2012-05-06T13:05:56Z</time>
      </trkpt>
      <trkpt lat="43.7542" lon="6.58276">
        <ele>1034</ele>
        <time>2012-05-06T13:06:03Z</time>
      </trkpt>
      <trkpt lat="43.75422" lon="6.58286">
        <ele>1034</ele>
        <time>2012-05-06T13:06:11Z</time>
      </trkpt>
      <trkpt lat="43.75428" lon="6.58306">
        <ele>1033</ele>
        <time>2012-05-06T13:06:27Z</time>
      </trkpt>
      <trkpt lat="43.75436" lon="6.58327">
        <ele>1032</ele>
        <time>2012-05-06T13:06:43Z</time>
      </trkpt>
      <trkpt lat="43.75437" lon="6.58339">
        <ele>1031</ele>
        <time>2012-05-06T13:06:52Z</time>
      </trkpt>
      <trkpt lat="43.75443" lon="6.58361">
        <ele>1029</ele>
        <time>2012-05-06T13:07:08Z</time>
      </trkpt>
      <trkpt lat="43.75451" lon="6.58379">
        <ele>1028</ele>
        <time>2012-05-06T13:07:21Z</time>
      </trkpt>
      <trkpt lat="43.75454" lon="6.58396">
        <ele>1027</ele>
        <time>2012-05-06T13:07:34Z</time>
      </trkpt>
      <trkpt lat="43.7546" lon="6.58414">
        <ele>1024</ele>
        <time>2012-05-06T13:07:50Z</time>
      </trkpt>
      <trkpt lat="43.75467" lon="6.58415">
        <ele>1022</ele>
        <time>2012-05-06T13:08:01Z</time>
      </trkpt>
      <trkpt lat="43.75467" lon="6.58405">
        <ele>1021</ele>
        <time>2012-05-06T13:08:13Z</time>
      </trkpt>
      <trkpt lat="43.75469" lon="6.58385">
        <ele>1018</ele>
        <time>2012-05-06T13:08:30Z</time>
      </trkpt>
      <trkpt lat="43.75473" lon="6.58366">
        <ele>1015</ele>
        <time>2012-05-06T13:08:43Z</time>
      </trkpt>
      <trkpt lat="43.75474" lon="6.58364">
        <ele>1015</ele>
        <time>2012-05-06T13:08:44Z</time>
      </trkpt>
      <trkpt lat="43.75485" lon="6.58365">
        <ele>1014</ele>
        <time>2012-05-06T13:08:57Z</time>
      </trkpt>
      <trkpt lat="43.75487" lon="6.58374">
        <ele>1013</ele>
        <time>2012-05-06T13:09:04Z</time>
      </trkpt>
      <trkpt lat="43.75491" lon="6.58389">
        <ele>1011</ele>
        <time>2012-05-06T13:09:20Z</time>
      </trkpt>
      <trkpt lat="43.75498" lon="6.58409">
        <ele>1009</ele>
        <time>2012-05-06T13:09:37Z</time>
      </trkpt>
      <trkpt lat="43.75504" lon="6.58431">
        <ele>1007</ele>
        <time>2012-05-06T13:09:53Z</time>
      </trkpt>
      <trkpt lat="43.75513" lon="6.58453">
        <ele>1005</ele>
        <time>2012-05-06T13:10:10Z</time>
      </trkpt>
      <trkpt lat="43.75517" lon="6.58466">
        <ele>1003</ele>
        <time>2012-05-06T13:10:21Z</time>
      </trkpt>
      <trkpt lat="43.7552" lon="6.58475">
        <ele>1002</ele>
        <time>2012-05-06T13:10:26Z</time>
      </trkpt>
      <trkpt lat="43.75522" lon="6.5848">
        <ele>1002</ele>
        <time>2012-05-06T13:10:29Z</time>
      </trkpt>
      <trkpt lat="43.75526" lon="6.585">
        <ele>1001</ele>
        <time>2012-05-06T13:10:44Z</time>
      </trkpt>
      <trkpt lat="43.75529" lon="6.5852">
        <ele>998</ele>
        <time>2012-05-06T13:11:00Z</time>
      </trkpt>
      <trkpt lat="43.75536" lon="6.58538">
        <ele>997</ele>
        <time>2012-05-06T13:11:17Z</time>
      </trkpt>
      <trkpt lat="43.75539" lon="6.58544">
        <ele>997</ele>
        <time>2012-05-06T13:11:20Z</time>
      </trkpt>
      <trkpt lat="43.75541" lon="6.58567">
        <ele>994</ele>
        <time>2012-05-06T13:11:37Z</time>
      </trkpt>
      <trkpt lat="43.75549" lon="6.58599">
        <ele>992</ele>
        <time>2012-05-06T13:11:59Z</time>
      </trkpt>
      <trkpt lat="43.75554" lon="6.58621">
        <ele>991</ele>
        <time>2012-05-06T13:12:14Z</time>
      </trkpt>
      <trkpt lat="43.7556" lon="6.58636">
        <ele>990</ele>
        <time>2012-05-06T13:12:20Z</time>
      </trkpt>
      <trkpt lat="43.75565" lon="6.58648">
        <ele>987</ele>
        <time>2012-05-06T13:12:35Z</time>
      </trkpt>
      <trkpt lat="43.75571" lon="6.58649">
        <ele>985</ele>
        <time>2012-05-06T13:12:48Z</time>
      </trkpt>
      <trkpt lat="43.75573" lon="6.58644">
        <ele>985</ele>
        <time>2012-05-06T13:12:52Z</time>
      </trkpt>
      <trkpt lat="43.75576" lon="6.58628">
        <ele>983</ele>
        <time>2012-05-06T13:13:06Z</time>
      </trkpt>
      <trkpt lat="43.75579" lon="6.58615">
        <ele>979</ele>
        <time>2012-05-06T13:13:18Z</time>
      </trkpt>
      <trkpt lat="43.75582" lon="6.58612">
        <ele>979</ele>
        <time>2012-05-06T13:13:21Z</time>
      </trkpt>
      <trkpt lat="43.7559" lon="6.58609">
        <ele>977</ele>
        <time>2012-05-06T13:13:32Z</time>
      </trkpt>
      <trkpt lat="43.75592" lon="6.58616">
        <ele>976</ele>
        <time>2012-05-06T13:13:40Z</time>
      </trkpt>
      <trkpt lat="43.75595" lon="6.58622">
        <ele>976</ele>
        <time>2012-05-06T13:13:45Z</time>
      </trkpt>
      <trkpt lat="43.75605" lon="6.58642">
        <ele>973</ele>
        <time>2012-05-06T13:14:00Z</time>
      </trkpt>
      <trkpt lat="43.75607" lon="6.58653">
        <ele>972</ele>
        <time>2012-05-06T13:14:10Z</time>
      </trkpt>
      <trkpt lat="43.75616" lon="6.58674">
        <ele>970</ele>
        <time>2012-05-06T13:14:26Z</time>
      </trkpt>
      <trkpt lat="43.7562" lon="6.5869">
        <ele>967</ele>
        <time>2012-05-06T13:14:37Z</time>
      </trkpt>
      <trkpt lat="43.75621" lon="6.58697">
        <ele>966</ele>
        <time>2012-05-06T13:14:43Z</time>
      </trkpt>
      <trkpt lat="43.75626" lon="6.58714">
        <ele>964</ele>
        <time>2012-05-06T13:14:56Z</time>
      </trkpt>
      <trkpt lat="43.75629" lon="6.58721">
        <ele>964</ele>
        <time>2012-05-06T13:15:01Z</time>
      </trkpt>
      <trkpt lat="43.75635" lon="6.58744">
        <ele>963</ele>
        <time>2012-05-06T13:15:20Z</time>
      </trkpt>
      <trkpt lat="43.75636" lon="6.58745">
        <ele>962</ele>
        <time>2012-05-06T13:15:21Z</time>
      </trkpt>
      <trkpt lat="43.75648" lon="6.58773">
        <ele>960</ele>
        <time>2012-05-06T13:15:38Z</time>
      </trkpt>
      <trkpt lat="43.75654" lon="6.58797">
        <ele>960</ele>
        <time>2012-05-06T13:15:53Z</time>
      </trkpt>
      <trkpt lat="43.75668" lon="6.58813">
        <ele>958</ele>
        <time>2012-05-06T13:16:11Z</time>
      </trkpt>
      <trkpt lat="43.75671" lon="6.58814">
        <ele>958</ele>
        <time>2012-05-06T13:16:13Z</time>
      </trkpt>
      <trkpt lat="43.75678" lon="6.58811">
        <ele>957</ele>
        <time>2012-05-06T13:16:20Z</time>
      </trkpt>
      <trkpt lat="43.75694" lon="6.58802">
        <ele>955</ele>
        <time>2012-05-06T13:16:36Z</time>
      </trkpt>
      <trkpt lat="43.75705" lon="6.58785">
        <ele>954</ele>
        <time>2012-05-06T13:16:51Z</time>
      </trkpt>
      <trkpt lat="43.75713" lon="6.58775">
        <ele>953</ele>
        <time>2012-05-06T13:17:04Z</time>
      </trkpt>
      <trkpt lat="43.75725" lon="6.58765">
        <ele>952</ele>
        <time>2012-05-06T13:17:18Z</time>
      </trkpt>
      <trkpt lat="43.75737" lon="6.58752">
        <ele>950</ele>
        <time>2012-05-06T13:17:32Z</time>
      </trkpt>
      <trkpt lat="43.75747" lon="6.58743">
        <ele>948</ele>
        <time>2012-05-06T13:17:44Z</time>
      </trkpt>
      <trkpt lat="43.75753" lon="6.58739">
        <ele>948</ele>
        <time>2012-05-06T13:17:51Z</time>
      </trkpt>
      <trkpt lat="43.75758" lon="6.58734">
        <ele>948</ele>
        <time>2012-05-06T13:17:56Z</time>
      </trkpt>
      <trkpt lat="43.75761" lon="6.5873">
        <ele>947</ele>
        <time>2012-05-06T13:18:00Z</time>
      </trkpt>
      <trkpt lat="43.75774" lon="6.58715">
        <ele>946</ele>
        <time>2012-05-06T13:18:14Z</time>
      </trkpt>
      <trkpt lat="43.75785" lon="6.58699">
        <ele>945</ele>
        <time>2012-05-06T13:18:28Z</time>
      </trkpt>
      <trkpt lat="43.75797" lon="6.58686">
        <ele>943</ele>
        <time>2012-05-06T13:18:42Z</time>
      </trkpt>
      <trkpt lat="43.75803" lon="6.58693">
        <ele>943</ele>
        <time>2012-05-06T13:19:05Z</time>
      </trkpt>
      <trkpt lat="43.75811" lon="6.58701">
        <ele>942</ele>
        <time>2012-05-06T13:19:20Z</time>
      </trkpt>
      <trkpt lat="43.75824" lon="6.58704">
        <ele>941</ele>
        <time>2012-05-06T13:19:31Z</time>
      </trkpt>
      <trkpt lat="43.75835" lon="6.58695">
        <ele>940</ele>
        <time>2012-05-06T13:19:46Z</time>
      </trkpt>
      <trkpt lat="43.75839" lon="6.58672">
        <ele>939</ele>
        <time>2012-05-06T13:20:01Z</time>
      </trkpt>
      <trkpt lat="43.75842" lon="6.58666">
        <ele>940</ele>
        <time>2012-05-06T13:20:06Z</time>
      </trkpt>
      <trkpt lat="43.75848" lon="6.58652">
        <ele>939</ele>
        <time>2012-05-06T13:20:15Z</time>
      </trkpt>
      <trkpt lat="43.75854" lon="6.58645">
        <ele>939</ele>
        <time>2012-05-06T13:20:32Z</time>
      </trkpt>
      <trkpt lat="43.75854" lon="6.58639">
        <ele>939</ele>
        <time>2012-05-06T13:21:25Z</time>
      </trkpt>
      <trkpt lat="43.75853" lon="6.58633">
        <ele>939</ele>
        <time>2012-05-06T13:21:45Z</time>
      </trkpt>
      <trkpt lat="43.75851" lon="6.58632">
        <ele>939</ele>
        <time>2012-05-06T13:22:26Z</time>
      </trkpt>
      <trkpt lat="43.75856" lon="6.58627">
        <ele>940</ele>
        <time>2012-05-06T13:24:26Z</time>
      </trkpt>
      <trkpt lat="43.75859" lon="6.58621">
        <ele>940</ele>
        <time>2012-05-06T13:24:39Z</time>
      </trkpt>
      <trkpt lat="43.75856" lon="6.58612">
        <ele>939</ele>
        <time>2012-05-06T13:24:54Z</time>
      </trkpt>
      <trkpt lat="43.75854" lon="6.58609">
        <ele>940</ele>
        <time>2012-05-06T13:24:57Z</time>
      </trkpt>
      <trkpt lat="43.75846" lon="6.58598">
        <ele>941</ele>
        <time>2012-05-06T13:25:11Z</time>
      </trkpt>
      <trkpt lat="43.75847" lon="6.58582">
        <ele>941</ele>
        <time>2012-05-06T13:25:29Z</time>
      </trkpt>
      <trkpt lat="43.7585" lon="6.58568">
        <ele>941</ele>
        <time>2012-05-06T13:25:40Z</time>
      </trkpt>
      <trkpt lat="43.75852" lon="6.58549">
        <ele>940</ele>
        <time>2012-05-06T13:25:54Z</time>
      </trkpt>
      <trkpt lat="43.75854" lon="6.58528">
        <ele>940</ele>
        <time>2012-05-06T13:26:10Z</time>
      </trkpt>
      <trkpt lat="43.75852" lon="6.58522">
        <ele>940</ele>
        <time>2012-05-06T13:26:18Z</time>
      </trkpt>
      <trkpt lat="43.75842" lon="6.58505">
        <ele>941</ele>
        <time>2012-05-06T13:26:32Z</time>
      </trkpt>
      <trkpt lat="43.75837" lon="6.585">
        <ele>940</ele>
        <time>2012-05-06T13:26:37Z</time>
      </trkpt>
      <trkpt lat="43.75837" lon="6.58496">
        <ele>940</ele>
        <time>2012-05-06T13:26:39Z</time>
      </trkpt>
      <trkpt lat="43.75835" lon="6.58491">
        <ele>940</ele>
        <time>2012-05-06T13:26:43Z</time>
      </trkpt>
      <trkpt lat="43.75825" lon="6.58475">
        <ele>939</ele>
        <time>2012-05-06T13:26:57Z</time>
      </trkpt>
      <trkpt lat="43.75823" lon="6.58473">
        <ele>938</ele>
        <time>2012-05-06T13:27:00Z</time>
      </trkpt>
      <trkpt lat="43.75818" lon="6.5847">
        <ele>938</ele>
        <time>2012-05-06T13:27:05Z</time>
      </trkpt>
      <trkpt lat="43.7582" lon="6.58452">
        <ele>938</ele>
        <time>2012-05-06T13:27:18Z</time>
      </trkpt>
      <trkpt lat="43.75827" lon="6.58432">
        <ele>938</ele>
        <time>2012-05-06T13:27:31Z</time>
      </trkpt>
      <trkpt lat="43.75837" lon="6.58421">
        <ele>936</ele>
        <time>2012-05-06T13:27:44Z</time>
      </trkpt>
      <trkpt lat="43.75848" lon="6.5841">
        <ele>935</ele>
        <time>2012-05-06T13:27:55Z</time>
      </trkpt>
      <trkpt lat="43.75851" lon="6.58408">
        <ele>934</ele>
        <time>2012-05-06T13:27:57Z</time>
      </trkpt>
      <trkpt lat="43.75854" lon="6.58399">
        <ele>933</ele>
        <time>2012-05-06T13:28:09Z</time>
      </trkpt>
      <trkpt lat="43.75854" lon="6.58381">
        <ele>934</ele>
        <time>2012-05-06T13:28:28Z</time>
      </trkpt>
      <trkpt lat="43.75851" lon="6.58359">
        <ele>933</ele>
        <time>2012-05-06T13:28:44Z</time>
      </trkpt>
      <trkpt lat="43.7585" lon="6.58339">
        <ele>933</ele>
        <time>2012-05-06T13:28:59Z</time>
      </trkpt>
      <trkpt lat="43.75848" lon="6.58318">
        <ele>934</ele>
        <time>2012-05-06T13:29:15Z</time>
      </trkpt>
      <trkpt lat="43.75851" lon="6.58312">
        <ele>934</ele>
        <time>2012-05-06T13:29:34Z</time>
      </trkpt>
      <trkpt lat="43.75848" lon="6.58308">
        <ele>935</ele>
        <time>2012-05-06T13:29:50Z</time>
      </trkpt>
      <trkpt lat="43.75848" lon="6.58283">
        <ele>936</ele>
        <time>2012-05-06T13:30:07Z</time>
      </trkpt>
      <trkpt lat="43.75851" lon="6.58272">
        <ele>937</ele>
        <time>2012-05-06T13:30:25Z</time>
      </trkpt>
      <trkpt lat="43.75855" lon="6.58271">
        <ele>936</ele>
        <time>2012-05-06T13:30:40Z</time>
      </trkpt>
      <trkpt lat="43.7586" lon="6.58267">
        <ele>934</ele>
        <time>2012-05-06T13:30:57Z</time>
      </trkpt>
      <trkpt lat="43.75875" lon="6.58255">
        <ele>936</ele>
        <time>2012-05-06T13:31:17Z</time>
      </trkpt>
      <trkpt lat="43.75886" lon="6.58255">
        <ele>934</ele>
        <time>2012-05-06T13:31:38Z</time>
      </trkpt>
      <trkpt lat="43.7589" lon="6.58252">
        <ele>934</ele>
        <time>2012-05-06T13:31:44Z</time>
      </trkpt>
      <trkpt lat="43.75899" lon="6.58251">
        <ele>934</ele>
        <time>2012-05-06T13:31:56Z</time>
      </trkpt>
      <trkpt lat="43.75902" lon="6.58249">
        <ele>935</ele>
        <time>2012-05-06T13:32:49Z</time>
      </trkpt>
      <trkpt lat="43.75918" lon="6.58263">
        <ele>936</ele>
        <time>2012-05-06T13:33:12Z</time>
      </trkpt>
      <trkpt lat="43.7593" lon="6.58275">
        <ele>936</ele>
        <time>2012-05-06T13:33:26Z</time>
      </trkpt>
      <trkpt lat="43.75934" lon="6.58282">
        <ele>937</ele>
        <time>2012-05-06T13:33:31Z</time>
      </trkpt>
      <trkpt lat="43.75937" lon="6.58286">
        <ele>936</ele>
        <time>2012-05-06T13:33:35Z</time>
      </trkpt>
      <trkpt lat="43.75945" lon="6.5829">
        <ele>936</ele>
        <time>2012-05-06T13:33:50Z</time>
      </trkpt>
      <trkpt lat="43.75949" lon="6.58289">
        <ele>936</ele>
        <time>2012-05-06T13:33:54Z</time>
      </trkpt>
      <trkpt lat="43.75957" lon="6.58283">
        <ele>936</ele>
        <time>2012-05-06T13:34:01Z</time>
      </trkpt>
      <trkpt lat="43.75964" lon="6.58288">
        <ele>937</ele>
        <time>2012-05-06T13:34:15Z</time>
      </trkpt>
      <trkpt lat="43.75969" lon="6.58292">
        <ele>936</ele>
        <time>2012-05-06T13:34:29Z</time>
      </trkpt>
      <trkpt lat="43.75965" lon="6.58296">
        <ele>937</ele>
        <time>2012-05-06T13:34:44Z</time>
      </trkpt>
      <trkpt lat="43.75961" lon="6.58304">
        <ele>937</ele>
        <time>2012-05-06T13:35:01Z</time>
      </trkpt>
      <trkpt lat="43.75957" lon="6.58312">
        <ele>938</ele>
        <time>2012-05-06T13:35:09Z</time>
      </trkpt>
      <trkpt lat="43.75953" lon="6.58324">
        <ele>937</ele>
        <time>2012-05-06T13:35:22Z</time>
      </trkpt>
      <trkpt lat="43.75953" lon="6.58328">
        <ele>937</ele>
        <time>2012-05-06T13:35:24Z</time>
      </trkpt>
      <trkpt lat="43.75953" lon="6.58332">
        <ele>937</ele>
        <time>2012-05-06T13:35:28Z</time>
      </trkpt>
      <trkpt lat="43.75952" lon="6.58339">
        <ele>936</ele>
        <time>2012-05-06T13:35:33Z</time>
      </trkpt>
      <trkpt lat="43.7595" lon="6.58354">
        <ele>935</ele>
        <time>2012-05-06T13:35:44Z</time>
      </trkpt>
      <trkpt lat="43.7595" lon="6.58354">
        <ele>935</ele>
        <time>2012-05-06T13:35:45Z</time>
      </trkpt>
      <trkpt lat="43.75946" lon="6.58374">
        <ele>936</ele>
        <time>2012-05-06T13:35:58Z</time>
      </trkpt>
      <trkpt lat="43.75943" lon="6.58385">
        <ele>936</ele>
        <time>2012-05-06T13:36:12Z</time>
      </trkpt>
      <trkpt lat="43.75942" lon="6.58399">
        <ele>936</ele>
        <time>2012-05-06T13:36:25Z</time>
      </trkpt>
      <trkpt lat="43.75951" lon="6.58411">
        <ele>937</ele>
        <time>2012-05-06T13:36:35Z</time>
      </trkpt>
      <trkpt lat="43.7595" lon="6.58426">
        <ele>937</ele>
        <time>2012-05-06T13:36:49Z</time>
      </trkpt>
      <trkpt lat="43.75949" lon="6.58426">
        <ele>936</ele>
        <time>2012-05-06T13:37:13Z</time>
      </trkpt>
      <trkpt lat="43.75945" lon="6.58422">
        <ele>936</ele>
        <time>2012-05-06T13:37:27Z</time>
      </trkpt>
      <trkpt lat="43.7594" lon="6.58408">
        <ele>936</ele>
        <time>2012-05-06T13:37:44Z</time>
      </trkpt>
      <trkpt lat="43.7594" lon="6.58401">
        <ele>936</ele>
        <time>2012-05-06T13:38:12Z</time>
      </trkpt>
      <trkpt lat="43.75942" lon="6.58394">
        <ele>936</ele>
        <time>2012-05-06T13:39:33Z</time>
      </trkpt>
      <trkpt lat="43.75942" lon="6.58382">
        <ele>935</ele>
        <time>2012-05-06T13:40:48Z</time>
      </trkpt>
      <trkpt lat="43.75949" lon="6.58377">
        <ele>934</ele>
        <time>2012-05-06T13:41:07Z</time>
      </trkpt>
      <trkpt lat="43.7595" lon="6.58374">
        <ele>934</ele>
        <time>2012-05-06T13:41:22Z</time>
      </trkpt>
      <trkpt lat="43.7595" lon="6.58372">
        <ele>935</ele>
        <time>2012-05-06T13:41:40Z</time>
      </trkpt>
      <trkpt lat="43.75943" lon="6.58379">
        <ele>935</ele>
        <time>2012-05-06T13:41:56Z</time>
      </trkpt>
      <trkpt lat="43.75947" lon="6.58373">
        <ele>935</ele>
        <time>2012-05-06T13:42:29Z</time>
      </trkpt>
      <trkpt lat="43.7595" lon="6.58363">
        <ele>935</ele>
        <time>2012-05-06T13:42:50Z</time>
      </trkpt>
      <trkpt lat="43.75954" lon="6.5834">
        <ele>936</ele>
        <time>2012-05-06T13:43:13Z</time>
      </trkpt>
      <trkpt lat="43.75954" lon="6.58325">
        <ele>937</ele>
        <time>2012-05-06T13:43:27Z</time>
      </trkpt>
      <trkpt lat="43.75955" lon="6.58321">
        <ele>937</ele>
        <time>2012-05-06T13:43:31Z</time>
      </trkpt>
      <trkpt lat="43.75959" lon="6.58306">
        <ele>936</ele>
        <time>2012-05-06T13:43:47Z</time>
      </trkpt>
      <trkpt lat="43.75964" lon="6.58296">
        <ele>936</ele>
        <time>2012-05-06T13:44:01Z</time>
      </trkpt>
      <trkpt lat="43.75966" lon="6.58288">
        <ele>936</ele>
        <time>2012-05-06T13:44:06Z</time>
      </trkpt>
      <trkpt lat="43.7596" lon="6.58279">
        <ele>936</ele>
        <time>2012-05-06T13:44:20Z</time>
      </trkpt>
      <trkpt lat="43.75955" lon="6.58282">
        <ele>936</ele>
        <time>2012-05-06T13:44:26Z</time>
      </trkpt>
      <trkpt lat="43.75951" lon="6.58287">
        <ele>936</ele>
        <time>2012-05-06T13:44:31Z</time>
      </trkpt>
      <trkpt lat="43.75947" lon="6.5829">
        <ele>936</ele>
        <time>2012-05-06T13:44:38Z</time>
      </trkpt>
      <trkpt lat="43.75937" lon="6.58287">
        <ele>936</ele>
        <time>2012-05-06T13:44:46Z</time>
      </trkpt>
      <trkpt lat="43.75935" lon="6.58284">
        <ele>936</ele>
        <time>2012-05-06T13:44:49Z</time>
      </trkpt>
      <trkpt lat="43.75934" lon="6.58281">
        <ele>936</ele>
        <time>2012-05-06T13:44:51Z</time>
      </trkpt>
      <trkpt lat="43.75929" lon="6.58273">
        <ele>936</ele>
        <time>2012-05-06T13:45:01Z</time>
      </trkpt>
      <trkpt lat="43.75923" lon="6.5827">
        <ele>935</ele>
        <time>2012-05-06T13:45:11Z</time>
      </trkpt>
      <trkpt lat="43.7591" lon="6.58266">
        <ele>933</ele>
        <time>2012-05-06T13:45:28Z</time>
      </trkpt>
      <trkpt lat="43.75902" lon="6.58254">
        <ele>934</ele>
        <time>2012-05-06T13:45:48Z</time>
      </trkpt>
      <trkpt lat="43.75902" lon="6.58251">
        <ele>934</ele>
        <time>2012-05-06T13:46:19Z</time>
      </trkpt>
      <trkpt lat="43.75889" lon="6.5825">
        <ele>933</ele>
        <time>2012-05-06T13:47:02Z</time>
      </trkpt>
      <trkpt lat="43.75877" lon="6.58249">
        <ele>936</ele>
        <time>2012-05-06T13:47:19Z</time>
      </trkpt>
      <trkpt lat="43.75863" lon="6.58247">
        <ele>938</ele>
        <time>2012-05-06T13:47:37Z</time>
      </trkpt>
      <trkpt lat="43.75856" lon="6.58239">
        <ele>938</ele>
        <time>2012-05-06T13:47:51Z</time>
      </trkpt>
      <trkpt lat="43.75852" lon="6.58237">
        <ele>938</ele>
        <time>2012-05-06T13:47:55Z</time>
      </trkpt>
      <trkpt lat="43.75841" lon="6.58226">
        <ele>940</ele>
        <time>2012-05-06T13:48:11Z</time>
      </trkpt>
      <trkpt lat="43.75835" lon="6.58214">
        <ele>941</ele>
        <time>2012-05-06T13:48:22Z</time>
      </trkpt>
      <trkpt lat="43.75834" lon="6.582">
        <ele>942</ele>
        <time>2012-05-06T13:48:36Z</time>
      </trkpt>
      <trkpt lat="43.75832" lon="6.58176">
        <ele>943</ele>
        <time>2012-05-06T13:48:49Z</time>
      </trkpt>
      <trkpt lat="43.75832" lon="6.58165">
        <ele>944</ele>
        <time>2012-05-06T13:49:03Z</time>
      </trkpt>
      <trkpt lat="43.75834" lon="6.58162">
        <ele>945</ele>
        <time>2012-05-06T13:49:16Z</time>
      </trkpt>
      <trkpt lat="43.75835" lon="6.58151">
        <ele>946</ele>
        <time>2012-05-06T13:49:28Z</time>
      </trkpt>
      <trkpt lat="43.75839" lon="6.58127">
        <ele>947</ele>
        <time>2012-05-06T13:49:43Z</time>
      </trkpt>
      <trkpt lat="43.7584" lon="6.58108">
        <ele>948</ele>
        <time>2012-05-06T13:49:57Z</time>
      </trkpt>
      <trkpt lat="43.75846" lon="6.58089">
        <ele>951</ele>
        <time>2012-05-06T13:50:13Z</time>
      </trkpt>
      <trkpt lat="43.75854" lon="6.58072">
        <ele>953</ele>
        <time>2012-05-06T13:50:29Z</time>
      </trkpt>
      <trkpt lat="43.7586" lon="6.58057">
        <ele>954</ele>
        <time>2012-05-06T13:50:42Z</time>
      </trkpt>
      <trkpt lat="43.75866" lon="6.5804">
        <ele>955</ele>
        <time>2012-05-06T13:50:57Z</time>
      </trkpt>
      <trkpt lat="43.75869" lon="6.58028">
        <ele>956</ele>
        <time>2012-05-06T13:51:08Z</time>
      </trkpt>
      <trkpt lat="43.75873" lon="6.58016">
        <ele>957</ele>
        <time>2012-05-06T13:51:18Z</time>
      </trkpt>
      <trkpt lat="43.75874" lon="6.57996">
        <ele>958</ele>
        <time>2012-05-06T13:51:32Z</time>
      </trkpt>
      <trkpt lat="43.75879" lon="6.57984">
        <ele>960</ele>
        <time>2012-05-06T13:51:45Z</time>
      </trkpt>
      <trkpt lat="43.75888" lon="6.57972">
        <ele>963</ele>
        <time>2012-05-06T13:52:01Z</time>
      </trkpt>
      <trkpt lat="43.75889" lon="6.5797">
        <ele>962</ele>
        <time>2012-05-06T13:52:03Z</time>
      </trkpt>
      <trkpt lat="43.75893" lon="6.57964">
        <ele>964</ele>
        <time>2012-05-06T13:52:09Z</time>
      </trkpt>
      <trkpt lat="43.75898" lon="6.57947">
        <ele>965</ele>
        <time>2012-05-06T13:52:24Z</time>
      </trkpt>
      <trkpt lat="43.75909" lon="6.57942">
        <ele>967</ele>
        <time>2012-05-06T13:52:37Z</time>
      </trkpt>
      <trkpt lat="43.75915" lon="6.57945">
        <ele>968</ele>
        <time>2012-05-06T13:52:50Z</time>
      </trkpt>
      <trkpt lat="43.75915" lon="6.57946">
        <ele>968</ele>
        <time>2012-05-06T13:52:51Z</time>
      </trkpt>
      <trkpt lat="43.75917" lon="6.57953">
        <ele>969</ele>
        <time>2012-05-06T13:52:57Z</time>
      </trkpt>
      <trkpt lat="43.75916" lon="6.57978">
        <ele>970</ele>
        <time>2012-05-06T13:53:13Z</time>
      </trkpt>
      <trkpt lat="43.75915" lon="6.57984">
        <ele>970</ele>
        <time>2012-05-06T13:53:18Z</time>
      </trkpt>
      <trkpt lat="43.75916" lon="6.5799">
        <ele>971</ele>
        <time>2012-05-06T13:53:33Z</time>
      </trkpt>
      <trkpt lat="43.75918" lon="6.57996">
        <ele>969</ele>
        <time>2012-05-06T13:54:01Z</time>
      </trkpt>
      <trkpt lat="43.75916" lon="6.57997">
        <ele>973</ele>
        <time>2012-05-06T13:55:18Z</time>
      </trkpt>
      <trkpt lat="43.75917" lon="6.57998">
        <ele>970</ele>
        <time>2012-05-06T13:55:34Z</time>
      </trkpt>
      <trkpt lat="43.75917" lon="6.57998">
        <ele>965</ele>
        <time>2012-05-06T13:55:35Z</time>
      </trkpt>
      <trkpt lat="43.75917" lon="6.57998">
        <ele>971</ele>
        <time>2012-05-06T13:55:36Z</time>
      </trkpt>
      <trkpt lat="43.75915" lon="6.57993">
        <ele>971</ele>
        <time>2012-05-06T13:56:56Z</time>
      </trkpt>
      <trkpt lat="43.75915" lon="6.57992">
        <ele>969</ele>
        <time>2012-05-06T13:57:04Z</time>
      </trkpt>
      <trkpt lat="43.75913" lon="6.57992">
        <ele>970</ele>
        <time>2012-05-06T13:57:25Z</time>
      </trkpt>
      <trkpt lat="43.75917" lon="6.57978">
        <ele>970</ele>
        <time>2012-05-06T13:58:08Z</time>
      </trkpt>
      <trkpt lat="43.75913" lon="6.57965">
        <ele>969</ele>
        <time>2012-05-06T13:58:23Z</time>
      </trkpt>
      <trkpt lat="43.75914" lon="6.5794">
        <ele>967</ele>
        <time>2012-05-06T13:58:38Z</time>
      </trkpt>
      <trkpt lat="43.75907" lon="6.57919">
        <ele>967</ele>
        <time>2012-05-06T13:58:52Z</time>
      </trkpt>
      <trkpt lat="43.75903" lon="6.57911">
        <ele>966</ele>
        <time>2012-05-06T13:59:01Z</time>
      </trkpt>
      <trkpt lat="43.75901" lon="6.57906">
        <ele>967</ele>
        <time>2012-05-06T13:59:04Z</time>
      </trkpt>
      <trkpt lat="43.75901" lon="6.57901">
        <ele>968</ele>
        <time>2012-05-06T13:59:09Z</time>
      </trkpt>
      <trkpt lat="43.75898" lon="6.57894">
        <ele>968</ele>
        <time>2012-05-06T13:59:27Z</time>
      </trkpt>
      <trkpt lat="43.75899" lon="6.57878">
        <ele>969</ele>
        <time>2012-05-06T13:59:36Z</time>
      </trkpt>
      <trkpt lat="43.75896" lon="6.57848">
        <ele>971</ele>
        <time>2012-05-06T13:59:54Z</time>
      </trkpt>
      <trkpt lat="43.75887" lon="6.57829">
        <ele>971</ele>
        <time>2012-05-06T14:00:06Z</time>
      </trkpt>
      <trkpt lat="43.75887" lon="6.57827">
        <ele>966</ele>
        <time>2012-05-06T14:00:08Z</time>
      </trkpt>
      <trkpt lat="43.75886" lon="6.57826">
        <ele>968</ele>
        <time>2012-05-06T14:00:09Z</time>
      </trkpt>
      <trkpt lat="43.75885" lon="6.57824">
        <ele>972</ele>
        <time>2012-05-06T14:00:11Z</time>
      </trkpt>
      <trkpt lat="43.75883" lon="6.57819">
        <ele>972</ele>
        <time>2012-05-06T14:00:12Z</time>
      </trkpt>
      <trkpt lat="43.75882" lon="6.57815">
        <ele>972</ele>
        <time>2012-05-06T14:00:15Z</time>
      </trkpt>
      <trkpt lat="43.75876" lon="6.57793">
        <ele>973</ele>
        <time>2012-05-06T14:00:30Z</time>
      </trkpt>
      <trkpt lat="43.75874" lon="6.57779">
        <ele>973</ele>
        <time>2012-05-06T14:00:39Z</time>
      </trkpt>
      <trkpt lat="43.75866" lon="6.57757">
        <ele>975</ele>
        <time>2012-05-06T14:00:59Z</time>
      </trkpt>
      <trkpt lat="43.7586" lon="6.57739">
        <ele>977</ele>
        <time>2012-05-06T14:01:21Z</time>
      </trkpt>
      <trkpt lat="43.75852" lon="6.5773">
        <ele>978</ele>
        <time>2012-05-06T14:01:32Z</time>
      </trkpt>
      <trkpt lat="43.75844" lon="6.57713">
        <ele>980</ele>
        <time>2012-05-06T14:01:44Z</time>
      </trkpt>
      <trkpt lat="43.75843" lon="6.57698">
        <ele>982</ele>
        <time>2012-05-06T14:02:00Z</time>
      </trkpt>
      <trkpt lat="43.75837" lon="6.57681">
        <ele>984</ele>
        <time>2012-05-06T14:02:16Z</time>
      </trkpt>
      <trkpt lat="43.75827" lon="6.5766">
        <ele>987</ele>
        <time>2012-05-06T14:02:36Z</time>
      </trkpt>
      <trkpt lat="43.75815" lon="6.57654">
        <ele>988</ele>
        <time>2012-05-06T14:02:51Z</time>
      </trkpt>
      <trkpt lat="43.758" lon="6.57648">
        <ele>991</ele>
        <time>2012-05-06T14:03:07Z</time>
      </trkpt>
      <trkpt lat="43.75783" lon="6.57642">
        <ele>992</ele>
        <time>2012-05-06T14:03:24Z</time>
      </trkpt>
      <trkpt lat="43.75769" lon="6.57636">
        <ele>994</ele>
        <time>2012-05-06T14:03:40Z</time>
      </trkpt>
      <trkpt lat="43.7576" lon="6.57629">
        <ele>995</ele>
        <time>2012-05-06T14:03:54Z</time>
      </trkpt>
      <trkpt lat="43.75748" lon="6.57612">
        <ele>998</ele>
        <time>2012-05-06T14:04:17Z</time>
      </trkpt>
      <trkpt lat="43.75745" lon="6.5759">
        <ele>1001</ele>
        <time>2012-05-06T14:04:41Z</time>
      </trkpt>
      <trkpt lat="43.75749" lon="6.57568">
        <ele>1003</ele>
        <time>2012-05-06T14:05:01Z</time>
      </trkpt>
      <trkpt lat="43.75737" lon="6.57543">
        <ele>1005</ele>
        <time>2012-05-06T14:05:22Z</time>
      </trkpt>
      <trkpt lat="43.75735" lon="6.57539">
        <ele>1005</ele>
        <time>2012-05-06T14:05:26Z</time>
      </trkpt>
      <trkpt lat="43.75733" lon="6.57536">
        <ele>1006</ele>
        <time>2012-05-06T14:05:29Z</time>
      </trkpt>
      <trkpt lat="43.75722" lon="6.57523">
        <ele>1007</ele>
        <time>2012-05-06T14:05:43Z</time>
      </trkpt>
      <trkpt lat="43.75719" lon="6.57517">
        <ele>1008</ele>
        <time>2012-05-06T14:05:50Z</time>
      </trkpt>
      <trkpt lat="43.75716" lon="6.57509">
        <ele>1008</ele>
        <time>2012-05-06T14:05:56Z</time>
      </trkpt>
      <trkpt lat="43.75706" lon="6.57498">
        <ele>1009</ele>
        <time>2012-05-06T14:06:10Z</time>
      </trkpt>
      <trkpt lat="43.75701" lon="6.57496">
        <ele>1009</ele>
        <time>2012-05-06T14:06:28Z</time>
      </trkpt>
      <trkpt lat="43.75701" lon="6.57492">
        <ele>1009</ele>
        <time>2012-05-06T14:07:31Z</time>
      </trkpt>
      <trkpt lat="43.75704" lon="6.57492">
        <ele>1009</ele>
        <time>2012-05-06T14:08:08Z</time>
      </trkpt>
      <trkpt lat="43.757" lon="6.57498">
        <ele>1009</ele>
        <time>2012-05-06T14:09:58Z</time>
      </trkpt>
      <trkpt lat="43.75692" lon="6.57515">
        <ele>1010</ele>
        <time>2012-05-06T14:10:09Z</time>
      </trkpt>
      <trkpt lat="43.75689" lon="6.57522">
        <ele>1010</ele>
        <time>2012-05-06T14:10:14Z</time>
      </trkpt>
      <trkpt lat="43.75682" lon="6.57526">
        <ele>1009</ele>
        <time>2012-05-06T14:10:22Z</time>
      </trkpt>
      <trkpt lat="43.7567" lon="6.57527">
        <ele>1011</ele>
        <time>2012-05-06T14:10:33Z</time>
      </trkpt>
      <trkpt lat="43.75664" lon="6.5753">
        <ele>1011</ele>
        <time>2012-05-06T14:10:39Z</time>
      </trkpt>
      <trkpt lat="43.75664" lon="6.57542">
        <ele>1013</ele>
        <time>2012-05-06T14:10:54Z</time>
      </trkpt>
      <trkpt lat="43.75655" lon="6.57554">
        <ele>1013</ele>
        <time>2012-05-06T14:11:11Z</time>
      </trkpt>
      <trkpt lat="43.75652" lon="6.5756">
        <ele>1013</ele>
        <time>2012-05-06T14:11:17Z</time>
      </trkpt>
      <trkpt lat="43.75646" lon="6.57575">
        <ele>1015</ele>
        <time>2012-05-06T14:11:35Z</time>
      </trkpt>
      <trkpt lat="43.75638" lon="6.57598">
        <ele>1015</ele>
        <time>2012-05-06T14:11:55Z</time>
      </trkpt>
      <trkpt lat="43.75639" lon="6.57605">
        <ele>1014</ele>
        <time>2012-05-06T14:12:00Z</time>
      </trkpt>
      <trkpt lat="43.75637" lon="6.57626">
        <ele>1014</ele>
        <time>2012-05-06T14:12:13Z</time>
      </trkpt>
      <trkpt lat="43.75635" lon="6.57631">
        <ele>1014</ele>
        <time>2012-05-06T14:12:18Z</time>
      </trkpt>
      <trkpt lat="43.75633" lon="6.57634">
        <ele>1014</ele>
        <time>2012-05-06T14:12:20Z</time>
      </trkpt>
      <trkpt lat="43.75621" lon="6.57646">
        <ele>1014</ele>
        <time>2012-05-06T14:12:34Z</time>
      </trkpt>
      <trkpt lat="43.75606" lon="6.57658">
        <ele>1014</ele>
        <time>2012-05-06T14:12:48Z</time>
      </trkpt>
      <trkpt lat="43.75598" lon="6.57666">
        <ele>1014</ele>
        <time>2012-05-06T14:12:59Z</time>
      </trkpt>
      <trkpt lat="43.75593" lon="6.57672">
        <ele>1013</ele>
        <time>2012-05-06T14:13:07Z</time>
      </trkpt>
      <trkpt lat="43.75578" lon="6.57696">
        <ele>1012</ele>
        <time>2012-05-06T14:13:22Z</time>
      </trkpt>
      <trkpt lat="43.75571" lon="6.57711">
        <ele>1011</ele>
        <time>2012-05-06T14:13:36Z</time>
      </trkpt>
      <trkpt lat="43.75559" lon="6.57726">
        <ele>1010</ele>
        <time>2012-05-06T14:13:51Z</time>
      </trkpt>
      <trkpt lat="43.7555" lon="6.57742">
        <ele>1008</ele>
        <time>2012-05-06T14:14:05Z</time>
      </trkpt>
      <trkpt lat="43.7554" lon="6.57754">
        <ele>1007</ele>
        <time>2012-05-06T14:14:17Z</time>
      </trkpt>
      <trkpt lat="43.7553" lon="6.57761">
        <ele>1006</ele>
        <time>2012-05-06T14:14:29Z</time>
      </trkpt>
      <trkpt lat="43.7552" lon="6.57782">
        <ele>1006</ele>
        <time>2012-05-06T14:14:52Z</time>
      </trkpt>
      <trkpt lat="43.75511" lon="6.57811">
        <ele>1008</ele>
        <time>2012-05-06T14:15:17Z</time>
      </trkpt>
      <trkpt lat="43.755" lon="6.57843">
        <ele>1009</ele>
        <time>2012-05-06T14:15:31Z</time>
      </trkpt>
      <trkpt lat="43.75499" lon="6.57848">
        <ele>1009</ele>
        <time>2012-05-06T14:15:33Z</time>
      </trkpt>
      <trkpt lat="43.75489" lon="6.5786">
        <ele>1010</ele>
        <time>2012-05-06T14:15:46Z</time>
      </trkpt>
      <trkpt lat="43.75482" lon="6.57871">
        <ele>1010</ele>
        <time>2012-05-06T14:15:59Z</time>
      </trkpt>
      <trkpt lat="43.7547" lon="6.57879">
        <ele>1010</ele>
        <time>2012-05-06T14:16:12Z</time>
      </trkpt>
      <trkpt lat="43.75458" lon="6.5788">
        <ele>1011</ele>
        <time>2012-05-06T14:16:26Z</time>
      </trkpt>
      <trkpt lat="43.7545" lon="6.57882">
        <ele>1011</ele>
        <time>2012-05-06T14:16:33Z</time>
      </trkpt>
      <trkpt lat="43.75436" lon="6.57883">
        <ele>1010</ele>
        <time>2012-05-06T14:16:47Z</time>
      </trkpt>
      <trkpt lat="43.75429" lon="6.57883">
        <ele>1010</ele>
        <time>2012-05-06T14:16:53Z</time>
      </trkpt>
      <trkpt lat="43.7542" lon="6.57879">
        <ele>1010</ele>
        <time>2012-05-06T14:17:07Z</time>
      </trkpt>
      <trkpt lat="43.75416" lon="6.57886">
        <ele>1010</ele>
        <time>2012-05-06T14:17:16Z</time>
      </trkpt>
      <trkpt lat="43.75406" lon="6.57892">
        <ele>1011</ele>
        <time>2012-05-06T14:17:28Z</time>
      </trkpt>
      <trkpt lat="43.75394" lon="6.57889">
        <ele>1012</ele>
        <time>2012-05-06T14:17:46Z</time>
      </trkpt>
      <trkpt lat="43.75383" lon="6.57883">
        <ele>1014</ele>
        <time>2012-05-06T14:18:03Z</time>
      </trkpt>
      <trkpt lat="43.75379" lon="6.57881">
        <ele>1014</ele>
        <time>2012-05-06T14:18:07Z</time>
      </trkpt>
      <trkpt lat="43.75364" lon="6.57878">
        <ele>1014</ele>
        <time>2012-05-06T14:18:21Z</time>
      </trkpt>
      <trkpt lat="43.75354" lon="6.57875">
        <ele>1014</ele>
        <time>2012-05-06T14:18:32Z</time>
      </trkpt>
      <trkpt lat="43.75351" lon="6.57871">
        <ele>1014</ele>
        <time>2012-05-06T14:18:36Z</time>
      </trkpt>
      <trkpt lat="43.75333" lon="6.57861">
        <ele>1016</ele>
        <time>2012-05-06T14:18:54Z</time>
      </trkpt>
      <trkpt lat="43.75316" lon="6.57848">
        <ele>1017</ele>
        <time>2012-05-06T14:19:08Z</time>
      </trkpt>
      <trkpt lat="43.75301" lon="6.57838">
        <ele>1017</ele>
        <time>2012-05-06T14:19:24Z</time>
      </trkpt>
      <trkpt lat="43.75282" lon="6.57829">
        <ele>1019</ele>
        <time>2012-05-06T14:19:41Z</time>
      </trkpt>
      <trkpt lat="43.75269" lon="6.57825">
        <ele>1020</ele>
        <time>2012-05-06T14:19:56Z</time>
      </trkpt>
      <trkpt lat="43.75255" lon="6.57821">
        <ele>1020</ele>
        <time>2012-05-06T14:20:11Z</time>
      </trkpt>
      <trkpt lat="43.75248" lon="6.57821">
        <ele>1020</ele>
        <time>2012-05-06T14:20:16Z</time>
      </trkpt>
      <trkpt lat="43.75239" lon="6.5782">
        <ele>1019</ele>
        <time>2012-05-06T14:20:22Z</time>
      </trkpt>
      <trkpt lat="43.75228" lon="6.57814">
        <ele>1021</ele>
        <time>2012-05-06T14:20:34Z</time>
      </trkpt>
      <trkpt lat="43.75225" lon="6.57816">
        <ele>1021</ele>
        <time>2012-05-06T14:20:37Z</time>
      </trkpt>
      <trkpt lat="43.7521" lon="6.57812">
        <ele>1022</ele>
        <time>2012-05-06T14:20:54Z</time>
      </trkpt>
      <trkpt lat="43.752" lon="6.57806">
        <ele>1022</ele>
        <time>2012-05-06T14:21:06Z</time>
      </trkpt>
      <trkpt lat="43.75189" lon="6.57796">
        <ele>1022</ele>
        <time>2012-05-06T14:21:19Z</time>
      </trkpt>
      <trkpt lat="43.75172" lon="6.57785">
        <ele>1022</ele>
        <time>2012-05-06T14:21:32Z</time>
      </trkpt>
      <trkpt lat="43.75164" lon="6.57773">
        <ele>1022</ele>
        <time>2012-05-06T14:21:44Z</time>
      </trkpt>
      <trkpt lat="43.75162" lon="6.57772">
        <ele>1023</ele>
        <time>2012-05-06T14:21:46Z</time>
      </trkpt>
      <trkpt lat="43.7516" lon="6.57767">
        <ele>1022</ele>
        <time>2012-05-06T14:21:48Z</time>
      </trkpt>
      <trkpt lat="43.75159" lon="6.57763">
        <ele>1022</ele>
        <time>2012-05-06T14:21:51Z</time>
      </trkpt>
      <trkpt lat="43.7515" lon="6.57754">
        <ele>1022</ele>
        <time>2012-05-06T14:22:01Z</time>
      </trkpt>
      <trkpt lat="43.75148" lon="6.57747">
        <ele>1023</ele>
        <time>2012-05-06T14:22:06Z</time>
      </trkpt>
      <trkpt lat="43.75146" lon="6.5774">
        <ele>1022</ele>
        <time>2012-05-06T14:22:10Z</time>
      </trkpt>
      <trkpt lat="43.75141" lon="6.57719">
        <ele>1022</ele>
        <time>2012-05-06T14:22:23Z</time>
      </trkpt>
      <trkpt lat="43.75144" lon="6.57714">
        <ele>1022</ele>
        <time>2012-05-06T14:22:26Z</time>
      </trkpt>
      <trkpt lat="43.7514" lon="6.57707">
        <ele>1022</ele>
        <time>2012-05-06T14:22:31Z</time>
      </trkpt>
      <trkpt lat="43.75138" lon="6.57698">
        <ele>1022</ele>
        <time>2012-05-06T14:22:39Z</time>
      </trkpt>
      <trkpt lat="43.75127" lon="6.57681">
        <ele>1024</ele>
        <time>2012-05-06T14:22:52Z</time>
      </trkpt>
      <trkpt lat="43.75127" lon="6.57662">
        <ele>1023</ele>
        <time>2012-05-06T14:23:06Z</time>
      </trkpt>
      <trkpt lat="43.75116" lon="6.57641">
        <ele>1024</ele>
        <time>2012-05-06T14:23:22Z</time>
      </trkpt>
      <trkpt lat="43.75096" lon="6.57625">
        <ele>1025</ele>
        <time>2012-05-06T14:23:41Z</time>
      </trkpt>
      <trkpt lat="43.7508" lon="6.57619">
        <ele>1024</ele>
        <time>2012-05-06T14:23:55Z</time>
      </trkpt>
      <trkpt lat="43.75078" lon="6.57618">
        <ele>1026</ele>
        <time>2012-05-06T14:23:57Z</time>
      </trkpt>
      <trkpt lat="43.75069" lon="6.57606">
        <ele>1027</ele>
        <time>2012-05-06T14:24:07Z</time>
      </trkpt>
      <trkpt lat="43.75065" lon="6.57604">
        <ele>1025</ele>
        <time>2012-05-06T14:24:11Z</time>
      </trkpt>
      <trkpt lat="43.75065" lon="6.57601">
        <ele>1027</ele>
        <time>2012-05-06T14:24:13Z</time>
      </trkpt>
      <trkpt lat="43.75054" lon="6.57599">
        <ele>1026</ele>
        <time>2012-05-06T14:24:25Z</time>
      </trkpt>
      <trkpt lat="43.75047" lon="6.57599">
        <ele>1027</ele>
        <time>2012-05-06T14:24:33Z</time>
      </trkpt>
      <trkpt lat="43.75044" lon="6.57598">
        <ele>1029</ele>
        <time>2012-05-06T14:24:35Z</time>
      </trkpt>
      <trkpt lat="43.75036" lon="6.57596">
        <ele>1029</ele>
        <time>2012-05-06T14:24:40Z</time>
      </trkpt>
      <trkpt lat="43.75035" lon="6.57595">
        <ele>1029</ele>
        <time>2012-05-06T14:24:41Z</time>
      </trkpt>
      <trkpt lat="43.75028" lon="6.5759">
        <ele>1028</ele>
        <time>2012-05-06T14:24:50Z</time>
      </trkpt>
      <trkpt lat="43.75015" lon="6.57574">
        <ele>1029</ele>
        <time>2012-05-06T14:25:06Z</time>
      </trkpt>
      <trkpt lat="43.75006" lon="6.57564">
        <ele>1031</ele>
        <time>2012-05-06T14:25:17Z</time>
      </trkpt>
      <trkpt lat="43.75002" lon="6.57561">
        <ele>1029</ele>
        <time>2012-05-06T14:25:22Z</time>
      </trkpt>
      <trkpt lat="43.75" lon="6.57558">
        <ele>1031</ele>
        <time>2012-05-06T14:25:24Z</time>
      </trkpt>
      <trkpt lat="43.74997" lon="6.57553">
        <ele>1030</ele>
        <time>2012-05-06T14:25:27Z</time>
      </trkpt>
      <trkpt lat="43.74997" lon="6.57544">
        <ele>1031</ele>
        <time>2012-05-06T14:25:32Z</time>
      </trkpt>
      <trkpt lat="43.74995" lon="6.57534">
        <ele>1032</ele>
        <time>2012-05-06T14:25:41Z</time>
      </trkpt>
      <trkpt lat="43.74991" lon="6.57528">
        <ele>1031</ele>
        <time>2012-05-06T14:25:46Z</time>
      </trkpt>
      <trkpt lat="43.74978" lon="6.57521">
        <ele>1034</ele>
        <time>2012-05-06T14:26:00Z</time>
      </trkpt>
      <trkpt lat="43.74959" lon="6.57505">
        <ele>1035</ele>
        <time>2012-05-06T14:26:20Z</time>
      </trkpt>
      <trkpt lat="43.74958" lon="6.57504">
        <ele>1034</ele>
        <time>2012-05-06T14:26:22Z</time>
      </trkpt>
      <trkpt lat="43.74949" lon="6.57492">
        <ele>1035</ele>
        <time>2012-05-06T14:26:32Z</time>
      </trkpt>
      <trkpt lat="43.7495" lon="6.57486">
        <ele>1036</ele>
        <time>2012-05-06T14:26:50Z</time>
      </trkpt>
      <trkpt lat="43.74952" lon="6.57485">
        <ele>1035</ele>
        <time>2012-05-06T14:28:03Z</time>
      </trkpt>
      <trkpt lat="43.74948" lon="6.57487">
        <ele>1036</ele>
        <time>2012-05-06T14:28:26Z</time>
      </trkpt>
      <trkpt lat="43.7494" lon="6.5748">
        <ele>1038</ele>
        <time>2012-05-06T14:28:32Z</time>
      </trkpt>
      <trkpt lat="43.74916" lon="6.57462">
        <ele>1037</ele>
        <time>2012-05-06T14:28:51Z</time>
      </trkpt>
      <trkpt lat="43.74915" lon="6.57461">
        <ele>1039</ele>
        <time>2012-05-06T14:28:52Z</time>
      </trkpt>
      <trkpt lat="43.74909" lon="6.57456">
        <ele>1039</ele>
        <time>2012-05-06T14:28:56Z</time>
      </trkpt>
      <trkpt lat="43.749" lon="6.5745">
        <ele>1038</ele>
        <time>2012-05-06T14:29:06Z</time>
      </trkpt>
      <trkpt lat="43.74896" lon="6.57447">
        <ele>1039</ele>
        <time>2012-05-06T14:29:17Z</time>
      </trkpt>
      <trkpt lat="43.74892" lon="6.57445">
        <ele>1042</ele>
        <time>2012-05-06T14:29:20Z</time>
      </trkpt>
      <trkpt lat="43.74876" lon="6.57439">
        <ele>1044</ele>
        <time>2012-05-06T14:29:39Z</time>
      </trkpt>
      <trkpt lat="43.74875" lon="6.57439">
        <ele>1044</ele>
        <time>2012-05-06T14:29:40Z</time>
      </trkpt>
      <trkpt lat="43.74867" lon="6.5743">
        <ele>1046</ele>
        <time>2012-05-06T14:29:50Z</time>
      </trkpt>
      <trkpt lat="43.74847" lon="6.57421">
        <ele>1047</ele>
        <time>2012-05-06T14:30:10Z</time>
      </trkpt>
      <trkpt lat="43.74844" lon="6.5742">
        <ele>1048</ele>
        <time>2012-05-06T14:30:12Z</time>
      </trkpt>
      <trkpt lat="43.74824" lon="6.57416">
        <ele>1051</ele>
        <time>2012-05-06T14:30:29Z</time>
      </trkpt>
      <trkpt lat="43.74809" lon="6.57403">
        <ele>1054</ele>
        <time>2012-05-06T14:30:49Z</time>
      </trkpt>
      <trkpt lat="43.74804" lon="6.57396">
        <ele>1056</ele>
        <time>2012-05-06T14:30:56Z</time>
      </trkpt>
      <trkpt lat="43.748" lon="6.57396">
        <ele>1056</ele>
        <time>2012-05-06T14:31:02Z</time>
      </trkpt>
      <trkpt lat="43.74798" lon="6.57395">
        <ele>1056</ele>
        <time>2012-05-06T14:31:04Z</time>
      </trkpt>
      <trkpt lat="43.7479" lon="6.5738">
        <ele>1059</ele>
        <time>2012-05-06T14:31:23Z</time>
      </trkpt>
      <trkpt lat="43.74778" lon="6.57364">
        <ele>1061</ele>
        <time>2012-05-06T14:31:45Z</time>
      </trkpt>
      <trkpt lat="43.74757" lon="6.57349">
        <ele>1063</ele>
        <time>2012-05-06T14:32:04Z</time>
      </trkpt>
      <trkpt lat="43.74744" lon="6.57329">
        <ele>1065</ele>
        <time>2012-05-06T14:32:23Z</time>
      </trkpt>
      <trkpt lat="43.74743" lon="6.57326">
        <ele>1064</ele>
        <time>2012-05-06T14:32:25Z</time>
      </trkpt>
      <trkpt lat="43.7475" lon="6.573">
        <ele>1067</ele>
        <time>2012-05-06T14:32:44Z</time>
      </trkpt>
      <trkpt lat="43.74765" lon="6.57279">
        <ele>1070</ele>
        <time>2012-05-06T14:33:02Z</time>
      </trkpt>
      <trkpt lat="43.74765" lon="6.57278">
        <ele>1069</ele>
        <time>2012-05-06T14:33:03Z</time>
      </trkpt>
      <trkpt lat="43.74767" lon="6.57257">
        <ele>1072</ele>
        <time>2012-05-06T14:33:18Z</time>
      </trkpt>
      <trkpt lat="43.74759" lon="6.57232">
        <ele>1074</ele>
        <time>2012-05-06T14:33:39Z</time>
      </trkpt>
      <trkpt lat="43.74759" lon="6.5723">
        <ele>1075</ele>
        <time>2012-05-06T14:33:41Z</time>
      </trkpt>
      <trkpt lat="43.74745" lon="6.57206">
        <ele>1078</ele>
        <time>2012-05-06T14:34:00Z</time>
      </trkpt>
      <trkpt lat="43.74749" lon="6.57201">
        <ele>1077</ele>
        <time>2012-05-06T14:34:34Z</time>
      </trkpt>
      <trkpt lat="43.74745" lon="6.57202">
        <ele>1078</ele>
        <time>2012-05-06T14:35:04Z</time>
      </trkpt>
      <trkpt lat="43.74745" lon="6.572">
        <ele>1078</ele>
        <time>2012-05-06T14:35:08Z</time>
      </trkpt>
      <trkpt lat="43.74741" lon="6.57199">
        <ele>1078</ele>
        <time>2012-05-06T14:35:12Z</time>
      </trkpt>
      <trkpt lat="43.74739" lon="6.57194">
        <ele>1079</ele>
        <time>2012-05-06T14:35:17Z</time>
      </trkpt>
      <trkpt lat="43.74718" lon="6.57186">
        <ele>1079</ele>
        <time>2012-05-06T14:35:39Z</time>
      </trkpt>
      <trkpt lat="43.747" lon="6.57181">
        <ele>1079</ele>
        <time>2012-05-06T14:35:55Z</time>
      </trkpt>
      <trkpt lat="43.74684" lon="6.57175">
        <ele>1078</ele>
        <time>2012-05-06T14:36:19Z</time>
      </trkpt>
      <trkpt lat="43.74652" lon="6.57159">
        <ele>1078</ele>
        <time>2012-05-06T14:36:41Z</time>
      </trkpt>
      <trkpt lat="43.74636" lon="6.57148">
        <ele>1078</ele>
        <time>2012-05-06T14:36:54Z</time>
      </trkpt>
      <trkpt lat="43.74634" lon="6.57144">
        <ele>1079</ele>
        <time>2012-05-06T14:36:57Z</time>
      </trkpt>
      <trkpt lat="43.74631" lon="6.57144">
        <ele>1076</ele>
        <time>2012-05-06T14:36:59Z</time>
      </trkpt>
      <trkpt lat="43.7463" lon="6.57143">
        <ele>1078</ele>
        <time>2012-05-06T14:37:00Z</time>
      </trkpt>
      <trkpt lat="43.74619" lon="6.57134">
        <ele>1079</ele>
        <time>2012-05-06T14:37:13Z</time>
      </trkpt>
      <trkpt lat="43.74606" lon="6.57113">
        <ele>1081</ele>
        <time>2012-05-06T14:37:30Z</time>
      </trkpt>
      <trkpt lat="43.74603" lon="6.571">
        <ele>1082</ele>
        <time>2012-05-06T14:37:38Z</time>
      </trkpt>
      <trkpt lat="43.74601" lon="6.57099">
        <ele>1080</ele>
        <time>2012-05-06T14:37:40Z</time>
      </trkpt>
      <trkpt lat="43.74597" lon="6.57091">
        <ele>1084</ele>
        <time>2012-05-06T14:37:47Z</time>
      </trkpt>
      <trkpt lat="43.74593" lon="6.57076">
        <ele>1084</ele>
        <time>2012-05-06T14:37:56Z</time>
      </trkpt>
      <trkpt lat="43.74586" lon="6.5706">
        <ele>1085</ele>
        <time>2012-05-06T14:38:08Z</time>
      </trkpt>
      <trkpt lat="43.74586" lon="6.57058">
        <ele>1084</ele>
        <time>2012-05-06T14:38:10Z</time>
      </trkpt>
      <trkpt lat="43.74586" lon="6.57047">
        <ele>1085</ele>
        <time>2012-05-06T14:38:20Z</time>
      </trkpt>
      <trkpt lat="43.74588" lon="6.57023">
        <ele>1086</ele>
        <time>2012-05-06T14:38:33Z</time>
      </trkpt>
      <trkpt lat="43.74587" lon="6.57014">
        <ele>1086</ele>
        <time>2012-05-06T14:38:39Z</time>
      </trkpt>
      <trkpt lat="43.74586" lon="6.57013">
        <ele>1088</ele>
        <time>2012-05-06T14:38:45Z</time>
      </trkpt>
      <trkpt lat="43.74585" lon="6.57009">
        <ele>1088</ele>
        <time>2012-05-06T14:38:47Z</time>
      </trkpt>
      <trkpt lat="43.74577" lon="6.56978">
        <ele>1089</ele>
        <time>2012-05-06T14:39:09Z</time>
      </trkpt>
      <trkpt lat="43.7457" lon="6.5697">
        <ele>1091</ele>
        <time>2012-05-06T14:39:19Z</time>
      </trkpt>
      <trkpt lat="43.74567" lon="6.56961">
        <ele>1093</ele>
        <time>2012-05-06T14:39:27Z</time>
      </trkpt>
      <trkpt lat="43.74565" lon="6.56943">
        <ele>1094</ele>
        <time>2012-05-06T14:39:40Z</time>
      </trkpt>
      <trkpt lat="43.74557" lon="6.56928">
        <ele>1095</ele>
        <time>2012-05-06T14:39:54Z</time>
      </trkpt>
      <trkpt lat="43.74555" lon="6.56918">
        <ele>1096</ele>
        <time>2012-05-06T14:40:01Z</time>
      </trkpt>
      <trkpt lat="43.74554" lon="6.56898">
        <ele>1097</ele>
        <time>2012-05-06T14:40:14Z</time>
      </trkpt>
      <trkpt lat="43.7455" lon="6.56882">
        <ele>1100</ele>
        <time>2012-05-06T14:40:31Z</time>
      </trkpt>
      <trkpt lat="43.74544" lon="6.5687">
        <ele>1101</ele>
        <time>2012-05-06T14:40:45Z</time>
      </trkpt>
      <trkpt lat="43.74542" lon="6.56859">
        <ele>1102</ele>
        <time>2012-05-06T14:40:52Z</time>
      </trkpt>
      <trkpt lat="43.74536" lon="6.56837">
        <ele>1103</ele>
        <time>2012-05-06T14:41:11Z</time>
      </trkpt>
      <trkpt lat="43.74535" lon="6.56826">
        <ele>1106</ele>
        <time>2012-05-06T14:41:22Z</time>
      </trkpt>
      <trkpt lat="43.74526" lon="6.56813">
        <ele>1108</ele>
        <time>2012-05-06T14:41:35Z</time>
      </trkpt>
      <trkpt lat="43.74525" lon="6.56809">
        <ele>1108</ele>
        <time>2012-05-06T14:41:39Z</time>
      </trkpt>
      <trkpt lat="43.74511" lon="6.56791">
        <ele>1108</ele>
        <time>2012-05-06T14:41:57Z</time>
      </trkpt>
      <trkpt lat="43.7451" lon="6.56786">
        <ele>1110</ele>
        <time>2012-05-06T14:42:00Z</time>
      </trkpt>
      <trkpt lat="43.74509" lon="6.56781">
        <ele>1110</ele>
        <time>2012-05-06T14:42:04Z</time>
      </trkpt>
      <trkpt lat="43.74505" lon="6.56773">
        <ele>1110</ele>
        <time>2012-05-06T14:42:25Z</time>
      </trkpt>
      <trkpt lat="43.74507" lon="6.56766">
        <ele>1110</ele>
        <time>2012-05-06T14:43:02Z</time>
      </trkpt>
      <trkpt lat="43.74506" lon="6.56767">
        <ele>1110</ele>
        <time>2012-05-06T14:43:49Z</time>
      </trkpt>
      <trkpt lat="43.74502" lon="6.56764">
        <ele>1112</ele>
        <time>2012-05-06T14:45:48Z</time>
      </trkpt>
      <trkpt lat="43.74496" lon="6.5676">
        <ele>1112</ele>
        <time>2012-05-06T14:45:53Z</time>
      </trkpt>
      <trkpt lat="43.74474" lon="6.56749">
        <ele>1112</ele>
        <time>2012-05-06T14:46:13Z</time>
      </trkpt>
      <trkpt lat="43.74466" lon="6.56746">
        <ele>1112</ele>
        <time>2012-05-06T14:46:19Z</time>
      </trkpt>
      <trkpt lat="43.74464" lon="6.56744">
        <ele>1112</ele>
        <time>2012-05-06T14:46:21Z</time>
      </trkpt>
      <trkpt lat="43.74447" lon="6.56729">
        <ele>1111</ele>
        <time>2012-05-06T14:46:42Z</time>
      </trkpt>
      <trkpt lat="43.74424" lon="6.56715">
        <ele>1113</ele>
        <time>2012-05-06T14:47:02Z</time>
      </trkpt>
      <trkpt lat="43.74412" lon="6.56703">
        <ele>1113</ele>
        <time>2012-05-06T14:47:16Z</time>
      </trkpt>
      <trkpt lat="43.74396" lon="6.56687">
        <ele>1114</ele>
        <time>2012-05-06T14:47:33Z</time>
      </trkpt>
      <trkpt lat="43.74391" lon="6.5668">
        <ele>1115</ele>
        <time>2012-05-06T14:47:40Z</time>
      </trkpt>
      <trkpt lat="43.74374" lon="6.56665">
        <ele>1117</ele>
        <time>2012-05-06T14:47:57Z</time>
      </trkpt>
      <trkpt lat="43.74356" lon="6.5665">
        <ele>1117</ele>
        <time>2012-05-06T14:48:18Z</time>
      </trkpt>
      <trkpt lat="43.74336" lon="6.56631">
        <ele>1119</ele>
        <time>2012-05-06T14:48:40Z</time>
      </trkpt>
      <trkpt lat="43.74315" lon="6.56619">
        <ele>1116</ele>
        <time>2012-05-06T14:49:01Z</time>
      </trkpt>
      <trkpt lat="43.74314" lon="6.56618">
        <ele>1118</ele>
        <time>2012-05-06T14:49:03Z</time>
      </trkpt>
      <trkpt lat="43.74304" lon="6.56609">
        <ele>1120</ele>
        <time>2012-05-06T14:49:22Z</time>
      </trkpt>
      <trkpt lat="43.7429" lon="6.5661">
        <ele>1123</ele>
        <time>2012-05-06T14:49:40Z</time>
      </trkpt>
      <trkpt lat="43.74285" lon="6.5661">
        <ele>1123</ele>
        <time>2012-05-06T14:49:47Z</time>
      </trkpt>
      <trkpt lat="43.74278" lon="6.56599">
        <ele>1123</ele>
        <time>2012-05-06T14:50:08Z</time>
      </trkpt>
      <trkpt lat="43.74261" lon="6.56597">
        <ele>1127</ele>
        <time>2012-05-06T14:50:19Z</time>
      </trkpt>
      <trkpt lat="43.74245" lon="6.56595">
        <ele>1127</ele>
        <time>2012-05-06T14:50:41Z</time>
      </trkpt>
      <trkpt lat="43.74226" lon="6.56591">
        <ele>1131</ele>
        <time>2012-05-06T14:50:59Z</time>
      </trkpt>
      <trkpt lat="43.74225" lon="6.5659">
        <ele>1130</ele>
        <time>2012-05-06T14:51:00Z</time>
      </trkpt>
      <trkpt lat="43.74211" lon="6.56581">
        <ele>1131</ele>
        <time>2012-05-06T14:51:12Z</time>
      </trkpt>
      <trkpt lat="43.74201" lon="6.56575">
        <ele>1132</ele>
        <time>2012-05-06T14:51:25Z</time>
      </trkpt>
      <trkpt lat="43.74192" lon="6.5656">
        <ele>1135</ele>
        <time>2012-05-06T14:51:46Z</time>
      </trkpt>
      <trkpt lat="43.74179" lon="6.56551">
        <ele>1137</ele>
        <time>2012-05-06T14:52:04Z</time>
      </trkpt>
      <trkpt lat="43.74164" lon="6.56543">
        <ele>1139</ele>
        <time>2012-05-06T14:52:20Z</time>
      </trkpt>
      <trkpt lat="43.74151" lon="6.56531">
        <ele>1140</ele>
        <time>2012-05-06T14:52:40Z</time>
      </trkpt>
      <trkpt lat="43.7414" lon="6.56525">
        <ele>1143</ele>
        <time>2012-05-06T14:52:58Z</time>
      </trkpt>
      <trkpt lat="43.74125" lon="6.56522">
        <ele>1146</ele>
        <time>2012-05-06T14:53:18Z</time>
      </trkpt>
      <trkpt lat="43.74116" lon="6.56521">
        <ele>1148</ele>
        <time>2012-05-06T14:53:36Z</time>
      </trkpt>
      <trkpt lat="43.741" lon="6.56525">
        <ele>1151</ele>
        <time>2012-05-06T14:53:56Z</time>
      </trkpt>
      <trkpt lat="43.74091" lon="6.56525">
        <ele>1154</ele>
        <time>2012-05-06T14:54:16Z</time>
      </trkpt>
      <trkpt lat="43.74079" lon="6.56528">
        <ele>1155</ele>
        <time>2012-05-06T14:54:31Z</time>
      </trkpt>
      <trkpt lat="43.74072" lon="6.56526">
        <ele>1157</ele>
        <time>2012-05-06T14:54:44Z</time>
      </trkpt>
      <trkpt lat="43.74068" lon="6.56513">
        <ele>1159</ele>
        <time>2012-05-06T14:55:17Z</time>
      </trkpt>
      <trkpt lat="43.7405" lon="6.56492">
        <ele>1161</ele>
        <time>2012-05-06T14:55:31Z</time>
      </trkpt>
      <trkpt lat="43.74049" lon="6.56491">
        <ele>1162</ele>
        <time>2012-05-06T14:55:32Z</time>
      </trkpt>
      <trkpt lat="43.74048" lon="6.56473">
        <ele>1163</ele>
        <time>2012-05-06T14:56:01Z</time>
      </trkpt>
      <trkpt lat="43.74043" lon="6.56465">
        <ele>1166</ele>
        <time>2012-05-06T14:56:30Z</time>
      </trkpt>
      <trkpt lat="43.74036" lon="6.56439">
        <ele>1168</ele>
        <time>2012-05-06T14:56:51Z</time>
      </trkpt>
      <trkpt lat="43.74023" lon="6.56409">
        <ele>1169</ele>
        <time>2012-05-06T14:57:09Z</time>
      </trkpt>
      <trkpt lat="43.74023" lon="6.56403">
        <ele>1171</ele>
        <time>2012-05-06T14:57:12Z</time>
      </trkpt>
      <trkpt lat="43.74014" lon="6.56393">
        <ele>1172</ele>
        <time>2012-05-06T14:57:29Z</time>
      </trkpt>
      <trkpt lat="43.74011" lon="6.56385">
        <ele>1175</ele>
        <time>2012-05-06T14:57:51Z</time>
      </trkpt>
      <trkpt lat="43.74005" lon="6.56375">
        <ele>1176</ele>
        <time>2012-05-06T14:58:10Z</time>
      </trkpt>
      <trkpt lat="43.73989" lon="6.56352">
        <ele>1179</ele>
        <time>2012-05-06T14:58:26Z</time>
      </trkpt>
      <trkpt lat="43.73989" lon="6.5634">
        <ele>1178</ele>
        <time>2012-05-06T14:58:47Z</time>
      </trkpt>
      <trkpt lat="43.73991" lon="6.56337">
        <ele>1178</ele>
        <time>2012-05-06T15:00:17Z</time>
      </trkpt>
      <trkpt lat="43.73987" lon="6.56331">
        <ele>1178</ele>
        <time>2012-05-06T15:01:00Z</time>
      </trkpt>
      <trkpt lat="43.73985" lon="6.5633">
        <ele>1176</ele>
        <time>2012-05-06T15:01:04Z</time>
      </trkpt>
      <trkpt lat="43.73974" lon="6.56321">
        <ele>1175</ele>
        <time>2012-05-06T15:01:19Z</time>
      </trkpt>
      <trkpt lat="43.73949" lon="6.56316">
        <ele>1172</ele>
        <time>2012-05-06T15:01:40Z</time>
      </trkpt>
      <trkpt lat="43.73947" lon="6.56314">
        <ele>1172</ele>
        <time>2012-05-06T15:01:42Z</time>
      </trkpt>
      <trkpt lat="43.7393" lon="6.56296">
        <ele>1171</ele>
        <time>2012-05-06T15:01:59Z</time>
      </trkpt>
      <trkpt lat="43.73909" lon="6.56287">
        <ele>1168</ele>
        <time>2012-05-06T15:02:15Z</time>
      </trkpt>
      <trkpt lat="43.73896" lon="6.5628">
        <ele>1166</ele>
        <time>2012-05-06T15:02:33Z</time>
      </trkpt>
      <trkpt lat="43.73881" lon="6.56275">
        <ele>1163</ele>
        <time>2012-05-06T15:02:52Z</time>
      </trkpt>
      <trkpt lat="43.73868" lon="6.56272">
        <ele>1161</ele>
        <time>2012-05-06T15:03:06Z</time>
      </trkpt>
      <trkpt lat="43.7386" lon="6.56268">
        <ele>1160</ele>
        <time>2012-05-06T15:03:09Z</time>
      </trkpt>
      <trkpt lat="43.73847" lon="6.56258">
        <ele>1160</ele>
        <time>2012-05-06T15:03:18Z</time>
      </trkpt>
      <trkpt lat="43.73839" lon="6.56255">
        <ele>1159</ele>
        <time>2012-05-06T15:03:24Z</time>
      </trkpt>
      <trkpt lat="43.73826" lon="6.56261">
        <ele>1157</ele>
        <time>2012-05-06T15:03:45Z</time>
      </trkpt>
      <trkpt lat="43.73811" lon="6.56267">
        <ele>1155</ele>
        <time>2012-05-06T15:04:03Z</time>
      </trkpt>
      <trkpt lat="43.738" lon="6.56274">
        <ele>1153</ele>
        <time>2012-05-06T15:04:20Z</time>
      </trkpt>
      <trkpt lat="43.73795" lon="6.56284">
        <ele>1151</ele>
        <time>2012-05-06T15:04:40Z</time>
      </trkpt>
      <trkpt lat="43.73788" lon="6.56295">
        <ele>1150</ele>
        <time>2012-05-06T15:04:58Z</time>
      </trkpt>
      <trkpt lat="43.7378" lon="6.56302">
        <ele>1148</ele>
        <time>2012-05-06T15:05:15Z</time>
      </trkpt>
      <trkpt lat="43.73772" lon="6.56314">
        <ele>1145</ele>
        <time>2012-05-06T15:05:35Z</time>
      </trkpt>
      <trkpt lat="43.73754" lon="6.56322">
        <ele>1143</ele>
        <time>2012-05-06T15:06:02Z</time>
      </trkpt>
      <trkpt lat="43.73737" lon="6.56328">
        <ele>1141</ele>
        <time>2012-05-06T15:06:21Z</time>
      </trkpt>
      <trkpt lat="43.73721" lon="6.56341">
        <ele>1137</ele>
        <time>2012-05-06T15:06:42Z</time>
      </trkpt>
      <trkpt lat="43.73707" lon="6.56352">
        <ele>1135</ele>
        <time>2012-05-06T15:06:59Z</time>
      </trkpt>
      <trkpt lat="43.73687" lon="6.56367">
        <ele>1133</ele>
        <time>2012-05-06T15:07:21Z</time>
      </trkpt>
      <trkpt lat="43.7367" lon="6.56372">
        <ele>1132</ele>
        <time>2012-05-06T15:07:42Z</time>
      </trkpt>
      <trkpt lat="43.73667" lon="6.56372">
        <ele>1131</ele>
        <time>2012-05-06T15:07:45Z</time>
      </trkpt>
      <trkpt lat="43.7364" lon="6.56381">
        <ele>1131</ele>
        <time>2012-05-06T15:08:06Z</time>
      </trkpt>
      <trkpt lat="43.73621" lon="6.56391">
        <ele>1131</ele>
        <time>2012-05-06T15:08:27Z</time>
      </trkpt>
      <trkpt lat="43.73603" lon="6.564">
        <ele>1129</ele>
        <time>2012-05-06T15:08:46Z</time>
      </trkpt>
      <trkpt lat="43.73589" lon="6.56416">
        <ele>1127</ele>
        <time>2012-05-06T15:09:06Z</time>
      </trkpt>
      <trkpt lat="43.73581" lon="6.56422">
        <ele>1125</ele>
        <time>2012-05-06T15:09:19Z</time>
      </trkpt>
      <trkpt lat="43.73567" lon="6.56435">
        <ele>1123</ele>
        <time>2012-05-06T15:09:36Z</time>
      </trkpt>
      <trkpt lat="43.73554" lon="6.56443">
        <ele>1122</ele>
        <time>2012-05-06T15:09:50Z</time>
      </trkpt>
      <trkpt lat="43.73531" lon="6.56457">
        <ele>1120</ele>
        <time>2012-05-06T15:10:11Z</time>
      </trkpt>
      <trkpt lat="43.73519" lon="6.56467">
        <ele>1122</ele>
        <time>2012-05-06T15:10:24Z</time>
      </trkpt>
      <trkpt lat="43.73501" lon="6.56481">
        <ele>1121</ele>
        <time>2012-05-06T15:10:44Z</time>
      </trkpt>
      <trkpt lat="43.7349" lon="6.56487">
        <ele>1120</ele>
        <time>2012-05-06T15:10:54Z</time>
      </trkpt>
      <trkpt lat="43.73479" lon="6.56496">
        <ele>1120</ele>
        <time>2012-05-06T15:11:15Z</time>
      </trkpt>
      <trkpt lat="43.73472" lon="6.56504">
        <ele>1120</ele>
        <time>2012-05-06T15:12:06Z</time>
      </trkpt>
      <trkpt lat="43.73462" lon="6.56509">
        <ele>1119</ele>
        <time>2012-05-06T15:12:29Z</time>
      </trkpt>
      <trkpt lat="43.73444" lon="6.56516">
        <ele>1116</ele>
        <time>2012-05-06T15:12:49Z</time>
      </trkpt>
      <trkpt lat="43.73427" lon="6.56539">
        <ele>1114</ele>
        <time>2012-05-06T15:13:09Z</time>
      </trkpt>
      <trkpt lat="43.73427" lon="6.5654">
        <ele>1114</ele>
        <time>2012-05-06T15:13:10Z</time>
      </trkpt>
      <trkpt lat="43.73426" lon="6.56546">
        <ele>1116</ele>
        <time>2012-05-06T15:13:14Z</time>
      </trkpt>
      <trkpt lat="43.73419" lon="6.56562">
        <ele>1114</ele>
        <time>2012-05-06T15:13:31Z</time>
      </trkpt>
      <trkpt lat="43.73411" lon="6.56574">
        <ele>1113</ele>
        <time>2012-05-06T15:13:51Z</time>
      </trkpt>
      <trkpt lat="43.7341" lon="6.5658">
        <ele>1110</ele>
        <time>2012-05-06T15:14:07Z</time>
      </trkpt>
      <trkpt lat="43.73404" lon="6.56591">
        <ele>1107</ele>
        <time>2012-05-06T15:14:25Z</time>
      </trkpt>
      <trkpt lat="43.73404" lon="6.56592">
        <ele>1107</ele>
        <time>2012-05-06T15:14:26Z</time>
      </trkpt>
      <trkpt lat="43.73391" lon="6.56612">
        <ele>1104</ele>
        <time>2012-05-06T15:14:47Z</time>
      </trkpt>
      <trkpt lat="43.73385" lon="6.56628">
        <ele>1102</ele>
        <time>2012-05-06T15:14:54Z</time>
      </trkpt>
      <trkpt lat="43.7338" lon="6.56642">
        <ele>1100</ele>
        <time>2012-05-06T15:15:04Z</time>
      </trkpt>
      <trkpt lat="43.73375" lon="6.56663">
        <ele>1099</ele>
        <time>2012-05-06T15:15:20Z</time>
      </trkpt>
      <trkpt lat="43.73366" lon="6.56676">
        <ele>1099</ele>
        <time>2012-05-06T15:15:35Z</time>
      </trkpt>
      <trkpt lat="43.73356" lon="6.56693">
        <ele>1097</ele>
        <time>2012-05-06T15:15:47Z</time>
      </trkpt>
      <trkpt lat="43.73333" lon="6.56709">
        <ele>1097</ele>
        <time>2012-05-06T15:16:06Z</time>
      </trkpt>
      <trkpt lat="43.73319" lon="6.56728">
        <ele>1096</ele>
        <time>2012-05-06T15:16:29Z</time>
      </trkpt>
      <trkpt lat="43.73316" lon="6.56738">
        <ele>1095</ele>
        <time>2012-05-06T15:16:50Z</time>
      </trkpt>
      <trkpt lat="43.73311" lon="6.56752">
        <ele>1093</ele>
        <time>2012-05-06T15:17:00Z</time>
      </trkpt>
      <trkpt lat="43.73296" lon="6.56771">
        <ele>1092</ele>
        <time>2012-05-06T15:17:16Z</time>
      </trkpt>
      <trkpt lat="43.73282" lon="6.56787">
        <ele>1091</ele>
        <time>2012-05-06T15:17:34Z</time>
      </trkpt>
      <trkpt lat="43.73265" lon="6.568">
        <ele>1088</ele>
        <time>2012-05-06T15:18:00Z</time>
      </trkpt>
      <trkpt lat="43.73249" lon="6.56815">
        <ele>1086</ele>
        <time>2012-05-06T15:18:21Z</time>
      </trkpt>
      <trkpt lat="43.73242" lon="6.56817">
        <ele>1085</ele>
        <time>2012-05-06T15:18:26Z</time>
      </trkpt>
      <trkpt lat="43.73227" lon="6.56823">
        <ele>1084</ele>
        <time>2012-05-06T15:18:46Z</time>
      </trkpt>
      <trkpt lat="43.73212" lon="6.56838">
        <ele>1082</ele>
        <time>2012-05-06T15:19:33Z</time>
      </trkpt>
      <trkpt lat="43.73196" lon="6.56844">
        <ele>1083</ele>
        <time>2012-05-06T15:19:47Z</time>
      </trkpt>
      <trkpt lat="43.73182" lon="6.5685">
        <ele>1083</ele>
        <time>2012-05-06T15:20:03Z</time>
      </trkpt>
      <trkpt lat="43.73177" lon="6.56856">
        <ele>1083</ele>
        <time>2012-05-06T15:20:10Z</time>
      </trkpt>
      <trkpt lat="43.73161" lon="6.56859">
        <ele>1082</ele>
        <time>2012-05-06T15:20:24Z</time>
      </trkpt>
      <trkpt lat="43.7316" lon="6.56851">
        <ele>1083</ele>
        <time>2012-05-06T15:20:43Z</time>
      </trkpt>
      <trkpt lat="43.73163" lon="6.56851">
        <ele>1079</ele>
        <time>2012-05-06T15:21:27Z</time>
      </trkpt>
      <trkpt lat="43.73163" lon="6.56851">
        <ele>1085</ele>
        <time>2012-05-06T15:21:28Z</time>
      </trkpt>
      <trkpt lat="43.73163" lon="6.56851">
        <ele>1079</ele>
        <time>2012-05-06T15:21:31Z</time>
      </trkpt>
      <trkpt lat="43.73163" lon="6.56851">
        <ele>1085</ele>
        <time>2012-05-06T15:21:32Z</time>
      </trkpt>
      <trkpt lat="43.73163" lon="6.56851">
        <ele>1083</ele>
        <time>2012-05-06T15:21:35Z</time>
      </trkpt>
      <trkpt lat="43.73163" lon="6.56856">
        <ele>1084</ele>
        <time>2012-05-06T15:22:15Z</time>
      </trkpt>
      <trkpt lat="43.73165" lon="6.56859">
        <ele>1084</ele>
        <time>2012-05-06T15:22:54Z</time>
      </trkpt>
      <trkpt lat="43.73166" lon="6.56858">
        <ele>1085</ele>
        <time>2012-05-06T15:23:19Z</time>
      </trkpt>
      <trkpt lat="43.73158" lon="6.56875">
        <ele>1085</ele>
        <time>2012-05-06T15:23:53Z</time>
      </trkpt>
      <trkpt lat="43.73158" lon="6.56884">
        <ele>1088</ele>
        <time>2012-05-06T15:24:04Z</time>
      </trkpt>
      <trkpt lat="43.73157" lon="6.56885">
        <ele>1087</ele>
        <time>2012-05-06T15:24:05Z</time>
      </trkpt>
      <trkpt lat="43.73154" lon="6.56893">
        <ele>1089</ele>
        <time>2012-05-06T15:24:11Z</time>
      </trkpt>
      <trkpt lat="43.73143" lon="6.56923">
        <ele>1090</ele>
        <time>2012-05-06T15:24:34Z</time>
      </trkpt>
      <trkpt lat="43.73142" lon="6.56926">
        <ele>1091</ele>
        <time>2012-05-06T15:24:57Z</time>
      </trkpt>
      <trkpt lat="43.73141" lon="6.56925">
        <ele>1091</ele>
        <time>2012-05-06T15:25:23Z</time>
      </trkpt>
      <trkpt lat="43.73141" lon="6.56926">
        <ele>1091</ele>
        <time>2012-05-06T15:26:21Z</time>
      </trkpt>
      <trkpt lat="43.73137" lon="6.56938">
        <ele>1090</ele>
        <time>2012-05-06T15:26:39Z</time>
      </trkpt>
      <trkpt lat="43.73136" lon="6.56941">
        <ele>1092</ele>
        <time>2012-05-06T15:26:42Z</time>
      </trkpt>
      <trkpt lat="43.73133" lon="6.56948">
        <ele>1093</ele>
        <time>2012-05-06T15:26:47Z</time>
      </trkpt>
      <trkpt lat="43.7312" lon="6.56971">
        <ele>1093</ele>
        <time>2012-05-06T15:27:05Z</time>
      </trkpt>
      <trkpt lat="43.73111" lon="6.56989">
        <ele>1092</ele>
        <time>2012-05-06T15:27:21Z</time>
      </trkpt>
      <trkpt lat="43.731" lon="6.57008">
        <ele>1090</ele>
        <time>2012-05-06T15:27:34Z</time>
      </trkpt>
      <trkpt lat="43.73091" lon="6.57024">
        <ele>1090</ele>
        <time>2012-05-06T15:27:49Z</time>
      </trkpt>
      <trkpt lat="43.73086" lon="6.57033">
        <ele>1089</ele>
        <time>2012-05-06T15:27:57Z</time>
      </trkpt>
      <trkpt lat="43.73082" lon="6.57039">
        <ele>1090</ele>
        <time>2012-05-06T15:28:03Z</time>
      </trkpt>
      <trkpt lat="43.73073" lon="6.57052">
        <ele>1088</ele>
        <time>2012-05-06T15:28:15Z</time>
      </trkpt>
      <trkpt lat="43.7306" lon="6.57075">
        <ele>1087</ele>
        <time>2012-05-06T15:28:37Z</time>
      </trkpt>
      <trkpt lat="43.73052" lon="6.57092">
        <ele>1087</ele>
        <time>2012-05-06T15:28:52Z</time>
      </trkpt>
      <trkpt lat="43.73043" lon="6.57106">
        <ele>1085</ele>
        <time>2012-05-06T15:29:06Z</time>
      </trkpt>
      <trkpt lat="43.73036" lon="6.57129">
        <ele>1086</ele>
        <time>2012-05-06T15:29:24Z</time>
      </trkpt>
      <trkpt lat="43.73031" lon="6.57147">
        <ele>1087</ele>
        <time>2012-05-06T15:29:40Z</time>
      </trkpt>
      <trkpt lat="43.73031" lon="6.57147">
        <ele>1087</ele>
        <time>2012-05-06T15:29:41Z</time>
      </trkpt>
      <trkpt lat="43.73027" lon="6.57164">
        <ele>1087</ele>
        <time>2012-05-06T15:29:56Z</time>
      </trkpt>
      <trkpt lat="43.73021" lon="6.57185">
        <ele>1087</ele>
        <time>2012-05-06T15:30:11Z</time>
      </trkpt>
      <trkpt lat="43.73018" lon="6.57206">
        <ele>1086</ele>
        <time>2012-05-06T15:30:27Z</time>
      </trkpt>
      <trkpt lat="43.73018" lon="6.5721">
        <ele>1088</ele>
        <time>2012-05-06T15:30:29Z</time>
      </trkpt>
      <trkpt lat="43.73013" lon="6.57227">
        <ele>1088</ele>
        <time>2012-05-06T15:30:48Z</time>
      </trkpt>
      <trkpt lat="43.73017" lon="6.57246">
        <ele>1089</ele>
        <time>2012-05-06T15:31:07Z</time>
      </trkpt>
      <trkpt lat="43.73017" lon="6.57249">
        <ele>1088</ele>
        <time>2012-05-06T15:31:24Z</time>
      </trkpt>
      <trkpt lat="43.73016" lon="6.57246">
        <ele>1092</ele>
        <time>2012-05-06T15:31:35Z</time>
      </trkpt>
      <trkpt lat="43.73017" lon="6.57246">
        <ele>1089</ele>
        <time>2012-05-06T15:31:36Z</time>
      </trkpt>
      <trkpt lat="43.73017" lon="6.57246">
        <ele>1090</ele>
        <time>2012-05-06T15:31:37Z</time>
      </trkpt>
      <trkpt lat="43.73019" lon="6.57241">
        <ele>1092</ele>
        <time>2012-05-06T15:32:02Z</time>
      </trkpt>
      <trkpt lat="43.7303" lon="6.57245">
        <ele>1089</ele>
        <time>2012-05-06T15:33:10Z</time>
      </trkpt>
      <trkpt lat="43.73027" lon="6.57255">
        <ele>1088</ele>
        <time>2012-05-06T15:33:28Z</time>
      </trkpt>
      <trkpt lat="43.73026" lon="6.5726">
        <ele>1088</ele>
        <time>2012-05-06T15:34:02Z</time>
      </trkpt>
      <trkpt lat="43.73019" lon="6.57259">
        <ele>1089</ele>
        <time>2012-05-06T15:34:51Z</time>
      </trkpt>
      <trkpt lat="43.73014" lon="6.57258">
        <ele>1088</ele>
        <time>2012-05-06T15:35:15Z</time>
      </trkpt>
      <trkpt lat="43.73009" lon="6.57261">
        <ele>1088</ele>
        <time>2012-05-06T15:36:15Z</time>
      </trkpt>
      <trkpt lat="43.73015" lon="6.57264">
        <ele>1089</ele>
        <time>2012-05-06T15:37:15Z</time>
      </trkpt>
      <trkpt lat="43.73017" lon="6.57266">
        <ele>1090</ele>
        <time>2012-05-06T15:37:22Z</time>
      </trkpt>
      <trkpt lat="43.73025" lon="6.57275">
        <ele>1089</ele>
        <time>2012-05-06T15:37:44Z</time>
      </trkpt>
      <trkpt lat="43.73024" lon="6.57282">
        <ele>1089</ele>
        <time>2012-05-06T15:38:07Z</time>
      </trkpt>
      <trkpt lat="43.73021" lon="6.57282">
        <ele>1089</ele>
        <time>2012-05-06T15:38:29Z</time>
      </trkpt>
      <trkpt lat="43.73019" lon="6.57284">
        <ele>1089</ele>
        <time>2012-05-06T15:38:58Z</time>
      </trkpt>
      <trkpt lat="43.7302" lon="6.57281">
        <ele>1089</ele>
        <time>2012-05-06T15:39:43Z</time>
      </trkpt>
      <trkpt lat="43.73022" lon="6.57276">
        <ele>1090</ele>
        <time>2012-05-06T15:39:59Z</time>
      </trkpt>
      <trkpt lat="43.73018" lon="6.5728">
        <ele>1089</ele>
        <time>2012-05-06T15:41:09Z</time>
      </trkpt>
      <trkpt lat="43.73017" lon="6.57291">
        <ele>1088</ele>
        <time>2012-05-06T15:41:16Z</time>
      </trkpt>
      <trkpt lat="43.73015" lon="6.57302">
        <ele>1087</ele>
        <time>2012-05-06T15:41:23Z</time>
      </trkpt>
      <trkpt lat="43.73011" lon="6.5731">
        <ele>1086</ele>
        <time>2012-05-06T15:41:34Z</time>
      </trkpt>
      <trkpt lat="43.73002" lon="6.57309">
        <ele>1085</ele>
        <time>2012-05-06T15:41:51Z</time>
      </trkpt>
      <trkpt lat="43.73" lon="6.57294">
        <ele>1084</ele>
        <time>2012-05-06T15:42:04Z</time>
      </trkpt>
      <trkpt lat="43.72997" lon="6.57303">
        <ele>1082</ele>
        <time>2012-05-06T15:42:19Z</time>
      </trkpt>
      <trkpt lat="43.72997" lon="6.57305">
        <ele>1083</ele>
        <time>2012-05-06T15:42:21Z</time>
      </trkpt>
      <trkpt lat="43.72995" lon="6.57313">
        <ele>1080</ele>
        <time>2012-05-06T15:42:32Z</time>
      </trkpt>
      <trkpt lat="43.72987" lon="6.57303">
        <ele>1080</ele>
        <time>2012-05-06T15:42:46Z</time>
      </trkpt>
      <trkpt lat="43.72984" lon="6.57295">
        <ele>1079</ele>
        <time>2012-05-06T15:43:00Z</time>
      </trkpt>
      <trkpt lat="43.72985" lon="6.57291">
        <ele>1079</ele>
        <time>2012-05-06T15:43:06Z</time>
      </trkpt>
      <trkpt lat="43.72986" lon="6.57262">
        <ele>1079</ele>
        <time>2012-05-06T15:43:18Z</time>
      </trkpt>
      <trkpt lat="43.72988" lon="6.57246">
        <ele>1078</ele>
        <time>2012-05-06T15:43:31Z</time>
      </trkpt>
      <trkpt lat="43.72988" lon="6.57249">
        <ele>1079</ele>
        <time>2012-05-06T15:43:55Z</time>
      </trkpt>
    </trkseg>
  </trk>
</gpx>